<?xml version="1.0" encoding="UTF-8"?>
<gpx version="1.1" creator="https://www.youtrack.es" xsi:schemaLocation="http://www.topografix.com/GPX/1/1 http://www.topografix.com/GPX/1/1/gpx.xsd http://www.garmin.com/xmlschemas/GpxExtensions/v3 http://www.garmin.com/xmlschemas/GpxExtensionsv3.xsd http://www.garmin.com/xmlschemas/TrackPointExtension/v1 http://www.garmin.com/xmlschemas/TrackPointExtensionv1.xsd" xmlns:gpxtpx="http://www.garmin.com/xmlschemas/TrackPointExtension/v1" xmlns:gpxx="http://www.garmin.com/xmlschemas/GpxExtensions/v3" xmlns:xsi="http://www.w3.org/2001/XMLSchema-instance">
  <metadata>
    <author>
      <name>Miguel Ángel Sánchez Rubí</name>
      <email id="sanchezrubi1978" domain="gmail.com"/>
    </author>
    <link href="https://www.youtrack.es">
      <text>YouTrack.es</text>
    </link>
    <time>2026-05-09T00:42:48Z</time>
  </metadata>
  <trk>
    <src>https://www.youtrack.es</src>
    <link href="https://www.youtrack.es/ruta/16171-etapa-2-final-mozarabe-hueneja-granada">
      <text>YouTrack.es</text>
    </link>
    <trkseg>
      <trkpt lat="37.175208" lon="-2.950567">
        <ele>1143.189</ele>
        <time>2018-10-27T08:11:20Z</time>
      </trkpt>
      <trkpt lat="37.174261" lon="-2.951409">
        <ele>1143.106</ele>
        <time>2018-10-27T08:11:30Z</time>
      </trkpt>
      <trkpt lat="37.174117" lon="-2.951725">
        <ele>1143.126</ele>
        <time>2018-10-27T08:18:25Z</time>
      </trkpt>
      <trkpt lat="37.174964" lon="-2.951736">
        <ele>1156.708</ele>
        <time>2018-10-27T08:19:53Z</time>
      </trkpt>
      <trkpt lat="37.175091" lon="-2.952479">
        <ele>1164.040</ele>
        <time>2018-10-27T08:20:42Z</time>
      </trkpt>
      <trkpt lat="37.176011" lon="-2.952918">
        <ele>1152.197</ele>
        <time>2018-10-27T08:21:56Z</time>
      </trkpt>
      <trkpt lat="37.176279" lon="-2.952583">
        <ele>1156.387</ele>
        <time>2018-10-27T08:22:25Z</time>
      </trkpt>
      <trkpt lat="37.175766" lon="-2.955775">
        <ele>1173.447</ele>
        <time>2018-10-27T08:26:09Z</time>
      </trkpt>
      <trkpt lat="37.175858" lon="-2.958117">
        <ele>1178.011</ele>
        <time>2018-10-27T08:28:40Z</time>
      </trkpt>
      <trkpt lat="37.175652" lon="-2.959653">
        <ele>1183.552</ele>
        <time>2018-10-27T08:30:23Z</time>
      </trkpt>
      <trkpt lat="37.175655" lon="-2.960679">
        <ele>1185.163</ele>
        <time>2018-10-27T08:31:28Z</time>
      </trkpt>
      <trkpt lat="37.175890" lon="-2.961437">
        <ele>1193.759</ele>
        <time>2018-10-27T08:32:29Z</time>
      </trkpt>
      <trkpt lat="37.175830" lon="-2.962378">
        <ele>1208.417</ele>
        <time>2018-10-27T08:33:39Z</time>
      </trkpt>
      <trkpt lat="37.175988" lon="-2.963340">
        <ele>1218.487</ele>
        <time>2018-10-27T08:34:45Z</time>
      </trkpt>
      <trkpt lat="37.176376" lon="-2.963910">
        <ele>1220.615</ele>
        <time>2018-10-27T08:36:26Z</time>
      </trkpt>
      <trkpt lat="37.178273" lon="-2.965886">
        <ele>1185.108</ele>
        <time>2018-10-27T08:40:28Z</time>
      </trkpt>
      <trkpt lat="37.178960" lon="-2.968325">
        <ele>1172.273</ele>
        <time>2018-10-27T08:43:36Z</time>
      </trkpt>
      <trkpt lat="37.179923" lon="-2.969615">
        <ele>1163.550</ele>
        <time>2018-10-27T08:45:31Z</time>
      </trkpt>
      <trkpt lat="37.180679" lon="-2.971270">
        <ele>1167.680</ele>
        <time>2018-10-27T08:47:21Z</time>
      </trkpt>
      <trkpt lat="37.180888" lon="-2.972737">
        <ele>1162.960</ele>
        <time>2018-10-27T08:49:00Z</time>
      </trkpt>
      <trkpt lat="37.181248" lon="-2.973488">
        <ele>1166.864</ele>
        <time>2018-10-27T08:49:55Z</time>
      </trkpt>
      <trkpt lat="37.181578" lon="-2.974898">
        <ele>1162.535</ele>
        <time>2018-10-27T08:51:21Z</time>
      </trkpt>
      <trkpt lat="37.182412" lon="-2.976236">
        <ele>1157.626</ele>
        <time>2018-10-27T08:52:57Z</time>
      </trkpt>
      <trkpt lat="37.182489" lon="-2.977034">
        <ele>1159.212</ele>
        <time>2018-10-27T08:53:42Z</time>
      </trkpt>
      <trkpt lat="37.182154" lon="-2.979414">
        <ele>1161.266</ele>
        <time>2018-10-27T08:56:15Z</time>
      </trkpt>
      <trkpt lat="37.181341" lon="-2.981327">
        <ele>1162.829</ele>
        <time>2018-10-27T08:58:22Z</time>
      </trkpt>
      <trkpt lat="37.180941" lon="-2.982049">
        <ele>1163.021</ele>
        <time>2018-10-27T08:59:13Z</time>
      </trkpt>
      <trkpt lat="37.180564" lon="-2.982244">
        <ele>1165.908</ele>
        <time>2018-10-27T08:59:44Z</time>
      </trkpt>
      <trkpt lat="37.180115" lon="-2.983421">
        <ele>1165.838</ele>
        <time>2018-10-27T09:01:06Z</time>
      </trkpt>
      <trkpt lat="37.180042" lon="-2.985594">
        <ele>1172.955</ele>
        <time>2018-10-27T09:03:15Z</time>
      </trkpt>
      <trkpt lat="37.179914" lon="-2.986030">
        <ele>1172.675</ele>
        <time>2018-10-27T09:03:41Z</time>
      </trkpt>
      <trkpt lat="37.179737" lon="-2.986134">
        <ele>1173.455</ele>
        <time>2018-10-27T09:04:01Z</time>
      </trkpt>
      <trkpt lat="37.179591" lon="-2.987311">
        <ele>1180.139</ele>
        <time>2018-10-27T09:05:14Z</time>
      </trkpt>
      <trkpt lat="37.179175" lon="-2.988413">
        <ele>1180.110</ele>
        <time>2018-10-27T09:06:32Z</time>
      </trkpt>
      <trkpt lat="37.179017" lon="-2.989777">
        <ele>1184.121</ele>
        <time>2018-10-27T09:07:53Z</time>
      </trkpt>
      <trkpt lat="37.178985" lon="-2.990543">
        <ele>1187.887</ele>
        <time>2018-10-27T09:08:41Z</time>
      </trkpt>
      <trkpt lat="37.179132" lon="-2.990710">
        <ele>1187.626</ele>
        <time>2018-10-27T09:09:08Z</time>
      </trkpt>
      <trkpt lat="37.179356" lon="-2.990569">
        <ele>1189.047</ele>
        <time>2018-10-27T09:09:28Z</time>
      </trkpt>
      <trkpt lat="37.179462" lon="-2.990812">
        <ele>1193.511</ele>
        <time>2018-10-27T09:09:45Z</time>
      </trkpt>
      <trkpt lat="37.179360" lon="-2.991030">
        <ele>1202.708</ele>
        <time>2018-10-27T09:10:08Z</time>
      </trkpt>
      <trkpt lat="37.178282" lon="-2.991466">
        <ele>1269.624</ele>
        <time>2018-10-27T09:26:58Z</time>
      </trkpt>
      <trkpt lat="37.178301" lon="-2.992836">
        <ele>1253.041</ele>
        <time>2018-10-27T09:28:17Z</time>
      </trkpt>
      <trkpt lat="37.178791" lon="-2.994067">
        <ele>1238.561</ele>
        <time>2018-10-27T09:29:37Z</time>
      </trkpt>
      <trkpt lat="37.177419" lon="-2.997530">
        <ele>1245.851</ele>
        <time>2018-10-27T09:33:03Z</time>
      </trkpt>
      <trkpt lat="37.177608" lon="-2.998622">
        <ele>1250.815</ele>
        <time>2018-10-27T09:34:03Z</time>
      </trkpt>
      <trkpt lat="37.177279" lon="-2.998888">
        <ele>1249.836</ele>
        <time>2018-10-27T09:34:28Z</time>
      </trkpt>
      <trkpt lat="37.177085" lon="-3.000060">
        <ele>1248.047</ele>
        <time>2018-10-27T09:35:28Z</time>
      </trkpt>
      <trkpt lat="37.177711" lon="-3.002442">
        <ele>1241.083</ele>
        <time>2018-10-27T09:37:37Z</time>
      </trkpt>
      <trkpt lat="37.177930" lon="-3.004079">
        <ele>1242.159</ele>
        <time>2018-10-27T09:39:05Z</time>
      </trkpt>
      <trkpt lat="37.177197" lon="-3.004281">
        <ele>1239.903</ele>
        <time>2018-10-27T09:40:05Z</time>
      </trkpt>
      <trkpt lat="37.176717" lon="-3.004610">
        <ele>1243.023</ele>
        <time>2018-10-27T09:40:45Z</time>
      </trkpt>
      <trkpt lat="37.176298" lon="-3.005340">
        <ele>1251.508</ele>
        <time>2018-10-27T09:41:34Z</time>
      </trkpt>
      <trkpt lat="37.175624" lon="-3.005527">
        <ele>1257.377</ele>
        <time>2018-10-27T09:42:22Z</time>
      </trkpt>
      <trkpt lat="37.173507" lon="-3.007627">
        <ele>1277.234</ele>
        <time>2018-10-27T09:46:09Z</time>
      </trkpt>
      <trkpt lat="37.172179" lon="-3.009957">
        <ele>1308.564</ele>
        <time>2018-10-27T09:50:00Z</time>
      </trkpt>
      <trkpt lat="37.172024" lon="-3.011192">
        <ele>1316.344</ele>
        <time>2018-10-27T09:51:33Z</time>
      </trkpt>
      <trkpt lat="37.171630" lon="-3.011584">
        <ele>1310.188</ele>
        <time>2018-10-27T09:52:12Z</time>
      </trkpt>
      <trkpt lat="37.171598" lon="-3.012447">
        <ele>1308.449</ele>
        <time>2018-10-27T09:53:02Z</time>
      </trkpt>
      <trkpt lat="37.171384" lon="-3.013058">
        <ele>1309.620</ele>
        <time>2018-10-27T09:53:40Z</time>
      </trkpt>
      <trkpt lat="37.170954" lon="-3.013604">
        <ele>1311.076</ele>
        <time>2018-10-27T09:54:23Z</time>
      </trkpt>
      <trkpt lat="37.171035" lon="-3.014096">
        <ele>1310.799</ele>
        <time>2018-10-27T09:54:55Z</time>
      </trkpt>
      <trkpt lat="37.170776" lon="-3.014715">
        <ele>1310.407</ele>
        <time>2018-10-27T09:55:36Z</time>
      </trkpt>
      <trkpt lat="37.170980" lon="-3.014919">
        <ele>1309.927</ele>
        <time>2018-10-27T09:55:56Z</time>
      </trkpt>
      <trkpt lat="37.171479" lon="-3.014585">
        <ele>1308.408</ele>
        <time>2018-10-27T09:56:43Z</time>
      </trkpt>
      <trkpt lat="37.171669" lon="-3.014632">
        <ele>1306.591</ele>
        <time>2018-10-27T09:56:57Z</time>
      </trkpt>
      <trkpt lat="37.172034" lon="-3.015105">
        <ele>1309.228</ele>
        <time>2018-10-27T09:57:39Z</time>
      </trkpt>
      <trkpt lat="37.171781" lon="-3.015663">
        <ele>1313.728</ele>
        <time>2018-10-27T09:58:17Z</time>
      </trkpt>
      <trkpt lat="37.171065" lon="-3.016248">
        <ele>1309.898</ele>
        <time>2018-10-27T09:59:18Z</time>
      </trkpt>
      <trkpt lat="37.171331" lon="-3.016971">
        <ele>1308.812</ele>
        <time>2018-10-27T10:01:44Z</time>
      </trkpt>
      <trkpt lat="37.171664" lon="-3.017217">
        <ele>1313.413</ele>
        <time>2018-10-27T10:02:11Z</time>
      </trkpt>
      <trkpt lat="37.171757" lon="-3.017787">
        <ele>1314.664</ele>
        <time>2018-10-27T10:02:44Z</time>
      </trkpt>
      <trkpt lat="37.172350" lon="-3.018159">
        <ele>1310.770</ele>
        <time>2018-10-27T10:03:28Z</time>
      </trkpt>
      <trkpt lat="37.172344" lon="-3.019170">
        <ele>1309.017</ele>
        <time>2018-10-27T10:04:21Z</time>
      </trkpt>
      <trkpt lat="37.172628" lon="-3.020383">
        <ele>1313.987</ele>
        <time>2018-10-27T10:05:33Z</time>
      </trkpt>
      <trkpt lat="37.172320" lon="-3.021951">
        <ele>1314.015</ele>
        <time>2018-10-27T10:07:02Z</time>
      </trkpt>
      <trkpt lat="37.172498" lon="-3.022636">
        <ele>1310.708</ele>
        <time>2018-10-27T10:07:43Z</time>
      </trkpt>
      <trkpt lat="37.172390" lon="-3.023117">
        <ele>1309.313</ele>
        <time>2018-10-27T10:08:09Z</time>
      </trkpt>
      <trkpt lat="37.172725" lon="-3.023424">
        <ele>1305.880</ele>
        <time>2018-10-27T10:08:38Z</time>
      </trkpt>
      <trkpt lat="37.173041" lon="-3.024459">
        <ele>1306.880</ele>
        <time>2018-10-27T10:09:39Z</time>
      </trkpt>
      <trkpt lat="37.173601" lon="-3.025154">
        <ele>1314.970</ele>
        <time>2018-10-27T10:10:39Z</time>
      </trkpt>
      <trkpt lat="37.173763" lon="-3.026165">
        <ele>1312.814</ele>
        <time>2018-10-27T10:11:35Z</time>
      </trkpt>
      <trkpt lat="37.173683" lon="-3.027863">
        <ele>1315.485</ele>
        <time>2018-10-27T10:13:09Z</time>
      </trkpt>
      <trkpt lat="37.173790" lon="-3.028373">
        <ele>1316.416</ele>
        <time>2018-10-27T10:13:41Z</time>
      </trkpt>
      <trkpt lat="37.173167" lon="-3.029447">
        <ele>1315.982</ele>
        <time>2018-10-27T10:15:11Z</time>
      </trkpt>
      <trkpt lat="37.173627" lon="-3.029989">
        <ele>1301.863</ele>
        <time>2018-10-27T10:16:09Z</time>
      </trkpt>
      <trkpt lat="37.174069" lon="-3.031031">
        <ele>1299.744</ele>
        <time>2018-10-27T10:18:20Z</time>
      </trkpt>
      <trkpt lat="37.173802" lon="-3.031465">
        <ele>1300.918</ele>
        <time>2018-10-27T10:18:56Z</time>
      </trkpt>
      <trkpt lat="37.173711" lon="-3.031979">
        <ele>1299.808</ele>
        <time>2018-10-27T10:19:29Z</time>
      </trkpt>
      <trkpt lat="37.173417" lon="-3.032200">
        <ele>1299.298</ele>
        <time>2018-10-27T10:20:01Z</time>
      </trkpt>
      <trkpt lat="37.173172" lon="-3.034221">
        <ele>1288.875</ele>
        <time>2018-10-27T10:22:08Z</time>
      </trkpt>
      <trkpt lat="37.172744" lon="-3.034775">
        <ele>1292.085</ele>
        <time>2018-10-27T10:23:31Z</time>
      </trkpt>
      <trkpt lat="37.172336" lon="-3.034943">
        <ele>1292.215</ele>
        <time>2018-10-27T10:24:10Z</time>
      </trkpt>
      <trkpt lat="37.172213" lon="-3.036009">
        <ele>1303.989</ele>
        <time>2018-10-27T10:26:06Z</time>
      </trkpt>
      <trkpt lat="37.172423" lon="-3.036185">
        <ele>1307.040</ele>
        <time>2018-10-27T10:26:41Z</time>
      </trkpt>
      <trkpt lat="37.172289" lon="-3.036283">
        <ele>1317.281</ele>
        <time>2018-10-27T10:27:10Z</time>
      </trkpt>
      <trkpt lat="37.172378" lon="-3.036326">
        <ele>1320.527</ele>
        <time>2018-10-27T10:27:35Z</time>
      </trkpt>
      <trkpt lat="37.173167" lon="-3.036132">
        <ele>1312.937</ele>
        <time>2018-10-27T10:28:37Z</time>
      </trkpt>
      <trkpt lat="37.173255" lon="-3.035317">
        <ele>1295.049</ele>
        <time>2018-10-27T10:29:31Z</time>
      </trkpt>
      <trkpt lat="37.174007" lon="-3.035450">
        <ele>1290.313</ele>
        <time>2018-10-27T10:30:25Z</time>
      </trkpt>
      <trkpt lat="37.175079" lon="-3.036082">
        <ele>1269.008</ele>
        <time>2018-10-27T10:31:46Z</time>
      </trkpt>
      <trkpt lat="37.175623" lon="-3.035845">
        <ele>1268.625</ele>
        <time>2018-10-27T10:32:28Z</time>
      </trkpt>
      <trkpt lat="37.175583" lon="-3.036722">
        <ele>1265.872</ele>
        <time>2018-10-27T10:33:18Z</time>
      </trkpt>
      <trkpt lat="37.175913" lon="-3.037160">
        <ele>1263.622</ele>
        <time>2018-10-27T10:33:51Z</time>
      </trkpt>
      <trkpt lat="37.175739" lon="-3.038210">
        <ele>1266.272</ele>
        <time>2018-10-27T10:34:48Z</time>
      </trkpt>
      <trkpt lat="37.175206" lon="-3.039783">
        <ele>1267.766</ele>
        <time>2018-10-27T10:36:24Z</time>
      </trkpt>
      <trkpt lat="37.175340" lon="-3.040893">
        <ele>1267.877</ele>
        <time>2018-10-27T10:37:22Z</time>
      </trkpt>
      <trkpt lat="37.175186" lon="-3.042089">
        <ele>1268.258</ele>
        <time>2018-10-27T10:38:28Z</time>
      </trkpt>
      <trkpt lat="37.175481" lon="-3.043738">
        <ele>1271.014</ele>
        <time>2018-10-27T10:40:04Z</time>
      </trkpt>
      <trkpt lat="37.175149" lon="-3.046383">
        <ele>1289.977</ele>
        <time>2018-10-27T10:42:57Z</time>
      </trkpt>
      <trkpt lat="37.174928" lon="-3.047091">
        <ele>1294.161</ele>
        <time>2018-10-27T10:43:52Z</time>
      </trkpt>
      <trkpt lat="37.175043" lon="-3.047562">
        <ele>1300.927</ele>
        <time>2018-10-27T10:44:28Z</time>
      </trkpt>
      <trkpt lat="37.174710" lon="-3.048015">
        <ele>1295.808</ele>
        <time>2018-10-27T10:45:35Z</time>
      </trkpt>
      <trkpt lat="37.174804" lon="-3.050026">
        <ele>1302.349</ele>
        <time>2018-10-27T10:47:26Z</time>
      </trkpt>
      <trkpt lat="37.174688" lon="-3.050654">
        <ele>1300.026</ele>
        <time>2018-10-27T10:47:59Z</time>
      </trkpt>
      <trkpt lat="37.173958" lon="-3.051658">
        <ele>1289.976</ele>
        <time>2018-10-27T10:49:13Z</time>
      </trkpt>
      <trkpt lat="37.173656" lon="-3.052467">
        <ele>1285.266</ele>
        <time>2018-10-27T10:50:10Z</time>
      </trkpt>
      <trkpt lat="37.173738" lon="-3.053951">
        <ele>1294.740</ele>
        <time>2018-10-27T10:51:32Z</time>
      </trkpt>
      <trkpt lat="37.173268" lon="-3.055296">
        <ele>1298.271</ele>
        <time>2018-10-27T10:52:51Z</time>
      </trkpt>
      <trkpt lat="37.173749" lon="-3.056057">
        <ele>1285.562</ele>
        <time>2018-10-27T10:53:42Z</time>
      </trkpt>
      <trkpt lat="37.175379" lon="-3.057069">
        <ele>1275.278</ele>
        <time>2018-10-27T10:55:33Z</time>
      </trkpt>
      <trkpt lat="37.176307" lon="-3.057397">
        <ele>1270.614</ele>
        <time>2018-10-27T10:56:34Z</time>
      </trkpt>
      <trkpt lat="37.177866" lon="-3.059003">
        <ele>1257.154</ele>
        <time>2018-10-27T10:58:45Z</time>
      </trkpt>
      <trkpt lat="37.178854" lon="-3.060843">
        <ele>1244.509</ele>
        <time>2018-10-27T11:00:36Z</time>
      </trkpt>
      <trkpt lat="37.179207" lon="-3.061936">
        <ele>1242.408</ele>
        <time>2018-10-27T11:01:41Z</time>
      </trkpt>
      <trkpt lat="37.179563" lon="-3.062374">
        <ele>1241.883</ele>
        <time>2018-10-27T11:02:23Z</time>
      </trkpt>
      <trkpt lat="37.179295" lon="-3.062209">
        <ele>1244.660</ele>
        <time>2018-10-27T11:10:00Z</time>
      </trkpt>
      <trkpt lat="37.179455" lon="-3.062419">
        <ele>1245.260</ele>
        <time>2018-10-27T11:52:28Z</time>
      </trkpt>
      <trkpt lat="37.179497" lon="-3.063249">
        <ele>1243.990</ele>
        <time>2018-10-27T11:53:09Z</time>
      </trkpt>
      <trkpt lat="37.179644" lon="-3.062505">
        <ele>1246.474</ele>
        <time>2018-10-27T11:54:11Z</time>
      </trkpt>
      <trkpt lat="37.179953" lon="-3.062867">
        <ele>1241.465</ele>
        <time>2018-10-27T11:54:37Z</time>
      </trkpt>
      <trkpt lat="37.180461" lon="-3.063022">
        <ele>1240.126</ele>
        <time>2018-10-27T11:55:19Z</time>
      </trkpt>
      <trkpt lat="37.180994" lon="-3.063414">
        <ele>1237.422</ele>
        <time>2018-10-27T11:56:01Z</time>
      </trkpt>
      <trkpt lat="37.181575" lon="-3.064050">
        <ele>1241.081</ele>
        <time>2018-10-27T11:57:01Z</time>
      </trkpt>
      <trkpt lat="37.181723" lon="-3.064007">
        <ele>1243.061</ele>
        <time>2018-10-27T11:57:13Z</time>
      </trkpt>
      <trkpt lat="37.181161" lon="-3.064156">
        <ele>1237.017</ele>
        <time>2018-10-27T11:58:19Z</time>
      </trkpt>
      <trkpt lat="37.180701" lon="-3.064561">
        <ele>1239.108</ele>
        <time>2018-10-27T11:58:55Z</time>
      </trkpt>
      <trkpt lat="37.181059" lon="-3.066794">
        <ele>1222.720</ele>
        <time>2018-10-27T12:01:01Z</time>
      </trkpt>
      <trkpt lat="37.181576" lon="-3.067488">
        <ele>1222.167</ele>
        <time>2018-10-27T12:02:08Z</time>
      </trkpt>
      <trkpt lat="37.181339" lon="-3.068098">
        <ele>1227.977</ele>
        <time>2018-10-27T12:02:48Z</time>
      </trkpt>
      <trkpt lat="37.181321" lon="-3.069032">
        <ele>1227.637</ele>
        <time>2018-10-27T12:03:40Z</time>
      </trkpt>
      <trkpt lat="37.180926" lon="-3.069776">
        <ele>1226.741</ele>
        <time>2018-10-27T12:04:30Z</time>
      </trkpt>
      <trkpt lat="37.180887" lon="-3.070135">
        <ele>1225.892</ele>
        <time>2018-10-27T12:04:50Z</time>
      </trkpt>
      <trkpt lat="37.180573" lon="-3.070641">
        <ele>1226.143</ele>
        <time>2018-10-27T12:05:24Z</time>
      </trkpt>
      <trkpt lat="37.180024" lon="-3.071025">
        <ele>1223.239</ele>
        <time>2018-10-27T12:06:17Z</time>
      </trkpt>
      <trkpt lat="37.180358" lon="-3.072207">
        <ele>1226.795</ele>
        <time>2018-10-27T12:07:33Z</time>
      </trkpt>
      <trkpt lat="37.179897" lon="-3.073327">
        <ele>1227.149</ele>
        <time>2018-10-27T12:08:45Z</time>
      </trkpt>
      <trkpt lat="37.179907" lon="-3.073662">
        <ele>1227.523</ele>
        <time>2018-10-27T12:09:04Z</time>
      </trkpt>
      <trkpt lat="37.180485" lon="-3.076220">
        <ele>1230.308</ele>
        <time>2018-10-27T12:11:44Z</time>
      </trkpt>
      <trkpt lat="37.180215" lon="-3.076972">
        <ele>1227.871</ele>
        <time>2018-10-27T12:12:33Z</time>
      </trkpt>
      <trkpt lat="37.180220" lon="-3.078553">
        <ele>1229.588</ele>
        <time>2018-10-27T12:14:01Z</time>
      </trkpt>
      <trkpt lat="37.179729" lon="-3.079874">
        <ele>1228.568</ele>
        <time>2018-10-27T12:15:25Z</time>
      </trkpt>
      <trkpt lat="37.179261" lon="-3.082029">
        <ele>1232.668</ele>
        <time>2018-10-27T12:18:23Z</time>
      </trkpt>
      <trkpt lat="37.180682" lon="-3.084042">
        <ele>1225.482</ele>
        <time>2018-10-27T12:21:01Z</time>
      </trkpt>
      <trkpt lat="37.182835" lon="-3.087846">
        <ele>1216.443</ele>
        <time>2018-10-27T12:25:19Z</time>
      </trkpt>
      <trkpt lat="37.183238" lon="-3.089390">
        <ele>1213.154</ele>
        <time>2018-10-27T12:26:46Z</time>
      </trkpt>
      <trkpt lat="37.184276" lon="-3.091740">
        <ele>1209.770</ele>
        <time>2018-10-27T12:29:12Z</time>
      </trkpt>
      <trkpt lat="37.184744" lon="-3.093297">
        <ele>1202.752</ele>
        <time>2018-10-27T12:30:41Z</time>
      </trkpt>
      <trkpt lat="37.187516" lon="-3.098321">
        <ele>1191.853</ele>
        <time>2018-10-27T12:36:19Z</time>
      </trkpt>
      <trkpt lat="37.187417" lon="-3.099924">
        <ele>1187.208</ele>
        <time>2018-10-27T12:37:52Z</time>
      </trkpt>
      <trkpt lat="37.187610" lon="-3.101213">
        <ele>1187.108</ele>
        <time>2018-10-27T12:39:18Z</time>
      </trkpt>
      <trkpt lat="37.187695" lon="-3.101381">
        <ele>1188.257</ele>
        <time>2018-10-27T12:39:30Z</time>
      </trkpt>
      <trkpt lat="37.188210" lon="-3.101226">
        <ele>1188.974</ele>
        <time>2018-10-27T12:40:18Z</time>
      </trkpt>
      <trkpt lat="37.187745" lon="-3.102088">
        <ele>1188.354</ele>
        <time>2018-10-27T12:43:11Z</time>
      </trkpt>
      <trkpt lat="37.186629" lon="-3.102687">
        <ele>1194.254</ele>
        <time>2018-10-27T12:44:45Z</time>
      </trkpt>
      <trkpt lat="37.186156" lon="-3.103669">
        <ele>1193.658</ele>
        <time>2018-10-27T12:46:08Z</time>
      </trkpt>
      <trkpt lat="37.185479" lon="-3.104375">
        <ele>1200.229</ele>
        <time>2018-10-27T12:47:13Z</time>
      </trkpt>
      <trkpt lat="37.184134" lon="-3.108217">
        <ele>1214.260</ele>
        <time>2018-10-27T12:51:21Z</time>
      </trkpt>
      <trkpt lat="37.182919" lon="-3.110919">
        <ele>1219.346</ele>
        <time>2018-10-27T12:54:28Z</time>
      </trkpt>
      <trkpt lat="37.182160" lon="-3.112139">
        <ele>1225.919</ele>
        <time>2018-10-27T12:55:55Z</time>
      </trkpt>
      <trkpt lat="37.180510" lon="-3.113734">
        <ele>1231.109</ele>
        <time>2018-10-27T12:58:59Z</time>
      </trkpt>
      <trkpt lat="37.179783" lon="-3.115555">
        <ele>1229.419</ele>
        <time>2018-10-27T13:01:02Z</time>
      </trkpt>
      <trkpt lat="37.178955" lon="-3.114925">
        <ele>1294.708</ele>
        <time>2018-10-27T13:38:06Z</time>
      </trkpt>
      <trkpt lat="37.178310" lon="-3.114639">
        <ele>1256.013</ele>
        <time>2018-10-27T13:39:45Z</time>
      </trkpt>
      <trkpt lat="37.178084" lon="-3.114787">
        <ele>1255.320</ele>
        <time>2018-10-27T13:40:45Z</time>
      </trkpt>
      <trkpt lat="37.177535" lon="-3.116060">
        <ele>1262.230</ele>
        <time>2018-10-27T13:42:25Z</time>
      </trkpt>
      <trkpt lat="37.177232" lon="-3.116201">
        <ele>1262.150</ele>
        <time>2018-10-27T13:42:49Z</time>
      </trkpt>
      <trkpt lat="37.176657" lon="-3.117166">
        <ele>1262.054</ele>
        <time>2018-10-27T13:44:11Z</time>
      </trkpt>
      <trkpt lat="37.175823" lon="-3.117331">
        <ele>1267.345</ele>
        <time>2018-10-27T13:45:12Z</time>
      </trkpt>
      <trkpt lat="37.174919" lon="-3.119106">
        <ele>1284.086</ele>
        <time>2018-10-27T13:47:25Z</time>
      </trkpt>
      <trkpt lat="37.174722" lon="-3.119244">
        <ele>1286.072</ele>
        <time>2018-10-27T13:47:56Z</time>
      </trkpt>
      <trkpt lat="37.174601" lon="-3.119288">
        <ele>1231.384</ele>
        <time>2018-10-28T07:57:56Z</time>
      </trkpt>
      <trkpt lat="37.174843" lon="-3.119299">
        <ele>1229.407</ele>
        <time>2018-10-28T07:59:41Z</time>
      </trkpt>
      <trkpt lat="37.174998" lon="-3.119133">
        <ele>1228.017</ele>
        <time>2018-10-28T07:59:56Z</time>
      </trkpt>
      <trkpt lat="37.175996" lon="-3.117361">
        <ele>1210.708</ele>
        <time>2018-10-28T08:01:56Z</time>
      </trkpt>
      <trkpt lat="37.176783" lon="-3.117272">
        <ele>1204.781</ele>
        <time>2018-10-28T08:02:51Z</time>
      </trkpt>
      <trkpt lat="37.178165" lon="-3.117901">
        <ele>1201.478</ele>
        <time>2018-10-28T08:04:46Z</time>
      </trkpt>
      <trkpt lat="37.179563" lon="-3.117603">
        <ele>1202.328</ele>
        <time>2018-10-28T08:06:42Z</time>
      </trkpt>
      <trkpt lat="37.180413" lon="-3.118942">
        <ele>1201.940</ele>
        <time>2018-10-28T08:08:42Z</time>
      </trkpt>
      <trkpt lat="37.182054" lon="-3.119161">
        <ele>1207.965</ele>
        <time>2018-10-28T08:10:41Z</time>
      </trkpt>
      <trkpt lat="37.182074" lon="-3.120431">
        <ele>1192.870</ele>
        <time>2018-10-28T08:11:47Z</time>
      </trkpt>
      <trkpt lat="37.182348" lon="-3.121198">
        <ele>1192.164</ele>
        <time>2018-10-28T08:12:39Z</time>
      </trkpt>
      <trkpt lat="37.183215" lon="-3.121570">
        <ele>1190.864</ele>
        <time>2018-10-28T08:13:50Z</time>
      </trkpt>
      <trkpt lat="37.183935" lon="-3.122185">
        <ele>1188.533</ele>
        <time>2018-10-28T08:14:49Z</time>
      </trkpt>
      <trkpt lat="37.184812" lon="-3.122676">
        <ele>1189.123</ele>
        <time>2018-10-28T08:15:50Z</time>
      </trkpt>
      <trkpt lat="37.186185" lon="-3.122963">
        <ele>1181.915</ele>
        <time>2018-10-28T08:17:28Z</time>
      </trkpt>
      <trkpt lat="37.186736" lon="-3.123936">
        <ele>1180.808</ele>
        <time>2018-10-28T08:18:31Z</time>
      </trkpt>
      <trkpt lat="37.189096" lon="-3.126837">
        <ele>1176.096</ele>
        <time>2018-10-28T08:22:31Z</time>
      </trkpt>
      <trkpt lat="37.189784" lon="-3.127426">
        <ele>1178.023</ele>
        <time>2018-10-28T08:23:29Z</time>
      </trkpt>
      <trkpt lat="37.190530" lon="-3.128813">
        <ele>1177.713</ele>
        <time>2018-10-28T08:25:07Z</time>
      </trkpt>
      <trkpt lat="37.190115" lon="-3.139734">
        <ele>1170.475</ele>
        <time>2018-10-28T08:40:10Z</time>
      </trkpt>
      <trkpt lat="37.189063" lon="-3.141689">
        <ele>1150.720</ele>
        <time>2018-10-28T08:42:24Z</time>
      </trkpt>
      <trkpt lat="37.188162" lon="-3.142103">
        <ele>1145.015</ele>
        <time>2018-10-28T08:43:41Z</time>
      </trkpt>
      <trkpt lat="37.188639" lon="-3.143616">
        <ele>1132.189</ele>
        <time>2018-10-28T08:45:51Z</time>
      </trkpt>
      <trkpt lat="37.188079" lon="-3.145261">
        <ele>1134.829</ele>
        <time>2018-10-28T08:47:37Z</time>
      </trkpt>
      <trkpt lat="37.188060" lon="-3.145757">
        <ele>1137.219</ele>
        <time>2018-10-28T08:48:36Z</time>
      </trkpt>
      <trkpt lat="37.187800" lon="-3.146123">
        <ele>1139.509</ele>
        <time>2018-10-28T08:49:03Z</time>
      </trkpt>
      <trkpt lat="37.187843" lon="-3.148360">
        <ele>1167.819</ele>
        <time>2018-10-28T08:51:21Z</time>
      </trkpt>
      <trkpt lat="37.187713" lon="-3.149111">
        <ele>1175.008</ele>
        <time>2018-10-28T08:52:15Z</time>
      </trkpt>
      <trkpt lat="37.187003" lon="-3.150664">
        <ele>1191.864</ele>
        <time>2018-10-28T08:54:20Z</time>
      </trkpt>
      <trkpt lat="37.186339" lon="-3.151694">
        <ele>1194.191</ele>
        <time>2018-10-28T08:56:04Z</time>
      </trkpt>
      <trkpt lat="37.186097" lon="-3.152843">
        <ele>1203.971</ele>
        <time>2018-10-28T08:57:22Z</time>
      </trkpt>
      <trkpt lat="37.185381" lon="-3.154445">
        <ele>1209.673</ele>
        <time>2018-10-28T08:59:37Z</time>
      </trkpt>
      <trkpt lat="37.185112" lon="-3.155411">
        <ele>1216.758</ele>
        <time>2018-10-28T09:00:59Z</time>
      </trkpt>
      <trkpt lat="37.184664" lon="-3.156287">
        <ele>1226.433</ele>
        <time>2018-10-28T09:02:01Z</time>
      </trkpt>
      <trkpt lat="37.184039" lon="-3.157044">
        <ele>1228.187</ele>
        <time>2018-10-28T09:03:23Z</time>
      </trkpt>
      <trkpt lat="37.183810" lon="-3.158148">
        <ele>1234.347</ele>
        <time>2018-10-28T09:05:21Z</time>
      </trkpt>
      <trkpt lat="37.183961" lon="-3.158768">
        <ele>1235.657</ele>
        <time>2018-10-28T09:06:08Z</time>
      </trkpt>
      <trkpt lat="37.183794" lon="-3.159532">
        <ele>1237.300</ele>
        <time>2018-10-28T09:06:57Z</time>
      </trkpt>
      <trkpt lat="37.183781" lon="-3.159252">
        <ele>1236.720</ele>
        <time>2018-10-28T09:07:57Z</time>
      </trkpt>
      <trkpt lat="37.184001" lon="-3.159400">
        <ele>1236.508</ele>
        <time>2018-10-28T09:08:12Z</time>
      </trkpt>
      <trkpt lat="37.183821" lon="-3.159447">
        <ele>1237.238</ele>
        <time>2018-10-28T09:08:22Z</time>
      </trkpt>
      <trkpt lat="37.183555" lon="-3.160470">
        <ele>1236.735</ele>
        <time>2018-10-28T09:10:01Z</time>
      </trkpt>
      <trkpt lat="37.183885" lon="-3.159761">
        <ele>1236.965</ele>
        <time>2018-10-28T09:11:03Z</time>
      </trkpt>
      <trkpt lat="37.184753" lon="-3.159610">
        <ele>1233.537</ele>
        <time>2018-10-28T09:12:09Z</time>
      </trkpt>
      <trkpt lat="37.185829" lon="-3.158693">
        <ele>1230.342</ele>
        <time>2018-10-28T09:13:45Z</time>
      </trkpt>
      <trkpt lat="37.186353" lon="-3.159085">
        <ele>1228.117</ele>
        <time>2018-10-28T09:14:26Z</time>
      </trkpt>
      <trkpt lat="37.187106" lon="-3.160161">
        <ele>1218.581</ele>
        <time>2018-10-28T09:15:43Z</time>
      </trkpt>
      <trkpt lat="37.188089" lon="-3.160262">
        <ele>1210.811</ele>
        <time>2018-10-28T09:17:02Z</time>
      </trkpt>
      <trkpt lat="37.188258" lon="-3.160463">
        <ele>1206.899</ele>
        <time>2018-10-28T09:17:21Z</time>
      </trkpt>
      <trkpt lat="37.188872" lon="-3.160518">
        <ele>1203.107</ele>
        <time>2018-10-28T09:17:56Z</time>
      </trkpt>
      <trkpt lat="37.189412" lon="-3.160825">
        <ele>1200.327</ele>
        <time>2018-10-28T09:18:27Z</time>
      </trkpt>
      <trkpt lat="37.190128" lon="-3.160764">
        <ele>1199.908</ele>
        <time>2018-10-28T09:20:16Z</time>
      </trkpt>
      <trkpt lat="37.190375" lon="-3.160585">
        <ele>1200.522</ele>
        <time>2018-10-28T09:20:47Z</time>
      </trkpt>
      <trkpt lat="37.191250" lon="-3.161257">
        <ele>1206.399</ele>
        <time>2018-10-28T09:22:03Z</time>
      </trkpt>
      <trkpt lat="37.192800" lon="-3.161983">
        <ele>1206.959</ele>
        <time>2018-10-28T09:24:14Z</time>
      </trkpt>
      <trkpt lat="37.193185" lon="-3.162388">
        <ele>1206.031</ele>
        <time>2018-10-28T09:24:54Z</time>
      </trkpt>
      <trkpt lat="37.195758" lon="-3.161815">
        <ele>1207.086</ele>
        <time>2018-10-28T09:28:29Z</time>
      </trkpt>
      <trkpt lat="37.196289" lon="-3.161364">
        <ele>1207.171</ele>
        <time>2018-10-28T09:29:12Z</time>
      </trkpt>
      <trkpt lat="37.196912" lon="-3.160498">
        <ele>1205.935</ele>
        <time>2018-10-28T09:30:16Z</time>
      </trkpt>
      <trkpt lat="37.197181" lon="-3.160355">
        <ele>1207.985</ele>
        <time>2018-10-28T09:30:45Z</time>
      </trkpt>
      <trkpt lat="37.197167" lon="-3.160785">
        <ele>1209.145</ele>
        <time>2018-10-28T09:31:15Z</time>
      </trkpt>
      <trkpt lat="37.197359" lon="-3.161051">
        <ele>1213.647</ele>
        <time>2018-10-28T09:31:53Z</time>
      </trkpt>
      <trkpt lat="37.197783" lon="-3.160620">
        <ele>1218.211</ele>
        <time>2018-10-28T09:32:34Z</time>
      </trkpt>
      <trkpt lat="37.198905" lon="-3.160619">
        <ele>1228.808</ele>
        <time>2018-10-28T09:34:06Z</time>
      </trkpt>
      <trkpt lat="37.199987" lon="-3.160311">
        <ele>1233.567</ele>
        <time>2018-10-28T09:35:38Z</time>
      </trkpt>
      <trkpt lat="37.201109" lon="-3.160568">
        <ele>1237.484</ele>
        <time>2018-10-28T09:37:13Z</time>
      </trkpt>
      <trkpt lat="37.201961" lon="-3.160452">
        <ele>1241.874</ele>
        <time>2018-10-28T09:38:18Z</time>
      </trkpt>
      <trkpt lat="37.202447" lon="-3.160646">
        <ele>1247.796</ele>
        <time>2018-10-28T09:38:57Z</time>
      </trkpt>
      <trkpt lat="37.202915" lon="-3.160525">
        <ele>1244.221</ele>
        <time>2018-10-28T09:39:35Z</time>
      </trkpt>
      <trkpt lat="37.203748" lon="-3.160646">
        <ele>1255.816</ele>
        <time>2018-10-28T09:41:57Z</time>
      </trkpt>
      <trkpt lat="37.204428" lon="-3.160517">
        <ele>1256.090</ele>
        <time>2018-10-28T09:43:38Z</time>
      </trkpt>
      <trkpt lat="37.205006" lon="-3.160764">
        <ele>1261.160</ele>
        <time>2018-10-28T09:44:28Z</time>
      </trkpt>
      <trkpt lat="37.205190" lon="-3.161022">
        <ele>1264.076</ele>
        <time>2018-10-28T09:45:00Z</time>
      </trkpt>
      <trkpt lat="37.204861" lon="-3.161320">
        <ele>1268.990</ele>
        <time>2018-10-28T09:45:48Z</time>
      </trkpt>
      <trkpt lat="37.205224" lon="-3.161037">
        <ele>1264.019</ele>
        <time>2018-10-28T09:46:36Z</time>
      </trkpt>
      <trkpt lat="37.205583" lon="-3.161338">
        <ele>1259.408</ele>
        <time>2018-10-28T09:47:08Z</time>
      </trkpt>
      <trkpt lat="37.205938" lon="-3.161383">
        <ele>1253.480</ele>
        <time>2018-10-28T09:47:41Z</time>
      </trkpt>
      <trkpt lat="37.206524" lon="-3.161724">
        <ele>1247.337</ele>
        <time>2018-10-28T09:48:26Z</time>
      </trkpt>
      <trkpt lat="37.207014" lon="-3.162221">
        <ele>1239.837</ele>
        <time>2018-10-28T09:49:07Z</time>
      </trkpt>
      <trkpt lat="37.207810" lon="-3.163679">
        <ele>1216.249</ele>
        <time>2018-10-28T09:50:47Z</time>
      </trkpt>
      <trkpt lat="37.208335" lon="-3.164180">
        <ele>1208.754</ele>
        <time>2018-10-28T09:51:34Z</time>
      </trkpt>
      <trkpt lat="37.208399" lon="-3.164845">
        <ele>1195.329</ele>
        <time>2018-10-28T09:52:29Z</time>
      </trkpt>
      <trkpt lat="37.208574" lon="-3.164730">
        <ele>1194.333</ele>
        <time>2018-10-28T09:53:07Z</time>
      </trkpt>
      <trkpt lat="37.208822" lon="-3.164966">
        <ele>1189.893</ele>
        <time>2018-10-28T09:53:53Z</time>
      </trkpt>
      <trkpt lat="37.209400" lon="-3.166231">
        <ele>1187.811</ele>
        <time>2018-10-28T09:55:11Z</time>
      </trkpt>
      <trkpt lat="37.209311" lon="-3.165854">
        <ele>1187.521</ele>
        <time>2018-10-28T09:55:52Z</time>
      </trkpt>
      <trkpt lat="37.210000" lon="-3.165840">
        <ele>1184.003</ele>
        <time>2018-10-28T09:57:10Z</time>
      </trkpt>
      <trkpt lat="37.211862" lon="-3.167012">
        <ele>1179.908</ele>
        <time>2018-10-28T09:59:27Z</time>
      </trkpt>
      <trkpt lat="37.212186" lon="-3.166826">
        <ele>1179.474</ele>
        <time>2018-10-28T09:59:51Z</time>
      </trkpt>
      <trkpt lat="37.213255" lon="-3.165484">
        <ele>1172.741</ele>
        <time>2018-10-28T10:01:34Z</time>
      </trkpt>
      <trkpt lat="37.214870" lon="-3.164892">
        <ele>1165.091</ele>
        <time>2018-10-28T10:03:32Z</time>
      </trkpt>
      <trkpt lat="37.215230" lon="-3.164913">
        <ele>1164.453</ele>
        <time>2018-10-28T10:03:56Z</time>
      </trkpt>
      <trkpt lat="37.215662" lon="-3.165345">
        <ele>1163.538</ele>
        <time>2018-10-28T10:04:33Z</time>
      </trkpt>
      <trkpt lat="37.216393" lon="-3.165590">
        <ele>1162.123</ele>
        <time>2018-10-28T10:05:24Z</time>
      </trkpt>
      <trkpt lat="37.217682" lon="-3.166392">
        <ele>1164.087</ele>
        <time>2018-10-28T10:07:01Z</time>
      </trkpt>
      <trkpt lat="37.218671" lon="-3.166746">
        <ele>1161.637</ele>
        <time>2018-10-28T10:08:13Z</time>
      </trkpt>
      <trkpt lat="37.219712" lon="-3.167324">
        <ele>1162.053</ele>
        <time>2018-10-28T10:09:42Z</time>
      </trkpt>
      <trkpt lat="37.220509" lon="-3.166411">
        <ele>1156.504</ele>
        <time>2018-10-28T10:10:57Z</time>
      </trkpt>
      <trkpt lat="37.221829" lon="-3.165591">
        <ele>1153.214</ele>
        <time>2018-10-28T10:12:37Z</time>
      </trkpt>
      <trkpt lat="37.222452" lon="-3.163781">
        <ele>1144.808</ele>
        <time>2018-10-28T10:14:24Z</time>
      </trkpt>
      <trkpt lat="37.223306" lon="-3.162823">
        <ele>1145.118</ele>
        <time>2018-10-28T10:15:44Z</time>
      </trkpt>
      <trkpt lat="37.223491" lon="-3.162221">
        <ele>1144.955</ele>
        <time>2018-10-28T10:16:32Z</time>
      </trkpt>
      <trkpt lat="37.224000" lon="-3.162542">
        <ele>1144.635</ele>
        <time>2018-10-28T10:17:16Z</time>
      </trkpt>
      <trkpt lat="37.224668" lon="-3.161407">
        <ele>1141.517</ele>
        <time>2018-10-28T10:18:37Z</time>
      </trkpt>
      <trkpt lat="37.224764" lon="-3.160986">
        <ele>1140.772</ele>
        <time>2018-10-28T10:19:04Z</time>
      </trkpt>
      <trkpt lat="37.224601" lon="-3.160815">
        <ele>1141.467</ele>
        <time>2018-10-28T10:19:21Z</time>
      </trkpt>
      <trkpt lat="37.226754" lon="-3.159302">
        <ele>1133.281</ele>
        <time>2018-10-28T11:05:45Z</time>
      </trkpt>
      <trkpt lat="37.229153" lon="-3.159633">
        <ele>1129.651</ele>
        <time>2018-10-28T11:08:32Z</time>
      </trkpt>
      <trkpt lat="37.230367" lon="-3.160265">
        <ele>1126.473</ele>
        <time>2018-10-28T11:09:56Z</time>
      </trkpt>
      <trkpt lat="37.232363" lon="-3.160511">
        <ele>1125.285</ele>
        <time>2018-10-28T11:12:25Z</time>
      </trkpt>
      <trkpt lat="37.233901" lon="-3.160871">
        <ele>1123.013</ele>
        <time>2018-10-28T11:14:03Z</time>
      </trkpt>
      <trkpt lat="37.234965" lon="-3.161358">
        <ele>1119.708</ele>
        <time>2018-10-28T11:15:16Z</time>
      </trkpt>
      <trkpt lat="37.237575" lon="-3.163128">
        <ele>1116.240</ele>
        <time>2018-10-28T11:18:34Z</time>
      </trkpt>
      <trkpt lat="37.240563" lon="-3.164543">
        <ele>1109.097</ele>
        <time>2018-10-28T11:22:06Z</time>
      </trkpt>
      <trkpt lat="37.242326" lon="-3.163822">
        <ele>1108.067</ele>
        <time>2018-10-28T11:24:11Z</time>
      </trkpt>
      <trkpt lat="37.246220" lon="-3.162926">
        <ele>1103.259</ele>
        <time>2018-10-28T11:28:33Z</time>
      </trkpt>
      <trkpt lat="37.247845" lon="-3.162104">
        <ele>1103.724</ele>
        <time>2018-10-28T11:30:29Z</time>
      </trkpt>
      <trkpt lat="37.249409" lon="-3.161745">
        <ele>1096.739</ele>
        <time>2018-10-28T11:32:12Z</time>
      </trkpt>
      <trkpt lat="37.250393" lon="-3.161165">
        <ele>1091.573</ele>
        <time>2018-10-28T11:33:27Z</time>
      </trkpt>
      <trkpt lat="37.250672" lon="-3.160883">
        <ele>1089.843</ele>
        <time>2018-10-28T11:33:51Z</time>
      </trkpt>
      <trkpt lat="37.250973" lon="-3.160213">
        <ele>1086.561</ele>
        <time>2018-10-28T11:34:45Z</time>
      </trkpt>
      <trkpt lat="37.251766" lon="-3.159452">
        <ele>1081.321</ele>
        <time>2018-10-28T11:35:49Z</time>
      </trkpt>
      <trkpt lat="37.252221" lon="-3.158371">
        <ele>1082.013</ele>
        <time>2018-10-28T11:37:04Z</time>
      </trkpt>
      <trkpt lat="37.253425" lon="-3.157290">
        <ele>1081.708</ele>
        <time>2018-10-28T11:38:45Z</time>
      </trkpt>
      <trkpt lat="37.254069" lon="-3.157258">
        <ele>1078.549</ele>
        <time>2018-10-28T11:39:23Z</time>
      </trkpt>
      <trkpt lat="37.254456" lon="-3.156973">
        <ele>1078.136</ele>
        <time>2018-10-28T11:39:59Z</time>
      </trkpt>
      <trkpt lat="37.255903" lon="-3.155509">
        <ele>1075.756</ele>
        <time>2018-10-28T11:42:09Z</time>
      </trkpt>
      <trkpt lat="37.257056" lon="-3.154627">
        <ele>1073.178</ele>
        <time>2018-10-28T11:43:33Z</time>
      </trkpt>
      <trkpt lat="37.258081" lon="-3.154345">
        <ele>1069.073</ele>
        <time>2018-10-28T11:44:42Z</time>
      </trkpt>
      <trkpt lat="37.258739" lon="-3.153940">
        <ele>1071.318</ele>
        <time>2018-10-28T11:45:32Z</time>
      </trkpt>
      <trkpt lat="37.260082" lon="-3.153576">
        <ele>1068.752</ele>
        <time>2018-10-28T11:47:00Z</time>
      </trkpt>
      <trkpt lat="37.261707" lon="-3.154114">
        <ele>1067.622</ele>
        <time>2018-10-28T11:49:04Z</time>
      </trkpt>
      <trkpt lat="37.262089" lon="-3.153718">
        <ele>1066.753</ele>
        <time>2018-10-28T11:49:39Z</time>
      </trkpt>
      <trkpt lat="37.262474" lon="-3.152932">
        <ele>1066.004</ele>
        <time>2018-10-28T11:50:29Z</time>
      </trkpt>
      <trkpt lat="37.261956" lon="-3.151431">
        <ele>1043.614</ele>
        <time>2018-10-28T11:52:15Z</time>
      </trkpt>
      <trkpt lat="37.261897" lon="-3.150668">
        <ele>1040.908</ele>
        <time>2018-10-28T11:52:55Z</time>
      </trkpt>
      <trkpt lat="37.262036" lon="-3.149645">
        <ele>1030.728</ele>
        <time>2018-10-28T11:53:56Z</time>
      </trkpt>
      <trkpt lat="37.264684" lon="-3.149971">
        <ele>1026.925</ele>
        <time>2018-10-28T11:56:57Z</time>
      </trkpt>
      <trkpt lat="37.266444" lon="-3.149762">
        <ele>1023.995</ele>
        <time>2018-10-28T11:59:01Z</time>
      </trkpt>
      <trkpt lat="37.270323" lon="-3.147805">
        <ele>1016.737</ele>
        <time>2018-10-28T12:03:48Z</time>
      </trkpt>
      <trkpt lat="37.273088" lon="-3.147161">
        <ele>1010.222</ele>
        <time>2018-10-28T12:06:55Z</time>
      </trkpt>
      <trkpt lat="37.274493" lon="-3.147219">
        <ele>1006.257</ele>
        <time>2018-10-28T12:08:27Z</time>
      </trkpt>
      <trkpt lat="37.276080" lon="-3.146930">
        <ele>1005.911</ele>
        <time>2018-10-28T12:10:12Z</time>
      </trkpt>
      <trkpt lat="37.276608" lon="-3.146960">
        <ele>1004.291</ele>
        <time>2018-10-28T12:10:43Z</time>
      </trkpt>
      <trkpt lat="37.277638" lon="-3.147987">
        <ele>998.263</ele>
        <time>2018-10-28T12:12:14Z</time>
      </trkpt>
      <trkpt lat="37.278721" lon="-3.148508">
        <ele>996.444</ele>
        <time>2018-10-28T12:13:32Z</time>
      </trkpt>
      <trkpt lat="37.280263" lon="-3.149969">
        <ele>991.118</ele>
        <time>2018-10-28T12:15:37Z</time>
      </trkpt>
      <trkpt lat="37.281967" lon="-3.151101">
        <ele>989.908</ele>
        <time>2018-10-28T12:17:44Z</time>
      </trkpt>
      <trkpt lat="37.283509" lon="-3.151910">
        <ele>984.199</ele>
        <time>2018-10-28T12:19:28Z</time>
      </trkpt>
      <trkpt lat="37.284559" lon="-3.152976">
        <ele>981.286</ele>
        <time>2018-10-28T12:21:07Z</time>
      </trkpt>
      <trkpt lat="37.285470" lon="-3.153441">
        <ele>978.376</ele>
        <time>2018-10-28T12:22:07Z</time>
      </trkpt>
      <trkpt lat="37.287344" lon="-3.154071">
        <ele>971.728</ele>
        <time>2018-10-28T12:24:13Z</time>
      </trkpt>
      <trkpt lat="37.288663" lon="-3.154825">
        <ele>968.493</ele>
        <time>2018-10-28T12:25:48Z</time>
      </trkpt>
      <trkpt lat="37.290387" lon="-3.155398">
        <ele>964.498</ele>
        <time>2018-10-28T12:27:44Z</time>
      </trkpt>
      <trkpt lat="37.291939" lon="-3.156361">
        <ele>957.192</ele>
        <time>2018-10-28T12:29:46Z</time>
      </trkpt>
      <trkpt lat="37.293279" lon="-3.156581">
        <ele>954.922</ele>
        <time>2018-10-28T12:31:15Z</time>
      </trkpt>
      <trkpt lat="37.294126" lon="-3.156889">
        <ele>954.269</ele>
        <time>2018-10-28T12:32:27Z</time>
      </trkpt>
      <trkpt lat="37.294074" lon="-3.157082">
        <ele>953.004</ele>
        <time>2018-10-28T12:33:48Z</time>
      </trkpt>
      <trkpt lat="37.294921" lon="-3.155326">
        <ele>960.724</ele>
        <time>2018-10-28T12:38:43Z</time>
      </trkpt>
      <trkpt lat="37.295525" lon="-3.153510">
        <ele>970.808</ele>
        <time>2018-10-28T12:40:37Z</time>
      </trkpt>
      <trkpt lat="37.295820" lon="-3.153232">
        <ele>973.559</ele>
        <time>2018-10-28T12:41:56Z</time>
      </trkpt>
      <trkpt lat="37.296111" lon="-3.152629">
        <ele>977.596</ele>
        <time>2018-10-28T12:42:41Z</time>
      </trkpt>
      <trkpt lat="37.296554" lon="-3.150994">
        <ele>960.826</ele>
        <time>2018-10-28T12:44:12Z</time>
      </trkpt>
      <trkpt lat="37.296522" lon="-3.150336">
        <ele>960.898</ele>
        <time>2018-10-28T12:44:51Z</time>
      </trkpt>
      <trkpt lat="37.296980" lon="-3.147714">
        <ele>947.943</ele>
        <time>2018-10-28T12:47:15Z</time>
      </trkpt>
      <trkpt lat="37.297371" lon="-3.147004">
        <ele>948.538</ele>
        <time>2018-10-28T12:48:07Z</time>
      </trkpt>
      <trkpt lat="37.297494" lon="-3.146292">
        <ele>948.192</ele>
        <time>2018-10-28T12:49:06Z</time>
      </trkpt>
      <trkpt lat="37.297388" lon="-3.145116">
        <ele>948.422</ele>
        <time>2018-10-28T12:50:18Z</time>
      </trkpt>
      <trkpt lat="37.296584" lon="-3.142628">
        <ele>949.524</ele>
        <time>2018-10-28T12:52:54Z</time>
      </trkpt>
      <trkpt lat="37.295710" lon="-3.143204">
        <ele>952.104</ele>
        <time>2018-10-28T12:54:29Z</time>
      </trkpt>
      <trkpt lat="37.295027" lon="-3.142911">
        <ele>956.014</ele>
        <time>2018-10-28T12:55:25Z</time>
      </trkpt>
      <trkpt lat="37.294833" lon="-3.142624">
        <ele>956.608</ele>
        <time>2018-10-28T12:55:46Z</time>
      </trkpt>
      <trkpt lat="37.294551" lon="-3.142585">
        <ele>957.835</ele>
        <time>2018-10-28T12:56:09Z</time>
      </trkpt>
      <trkpt lat="37.294471" lon="-3.142342">
        <ele>957.382</ele>
        <time>2018-10-28T12:56:49Z</time>
      </trkpt>
      <trkpt lat="37.294706" lon="-3.142289">
        <ele>956.332</ele>
        <time>2018-10-28T12:57:17Z</time>
      </trkpt>
      <trkpt lat="37.294531" lon="-3.142320">
        <ele>957.094</ele>
        <time>2018-10-28T12:58:07Z</time>
      </trkpt>
      <trkpt lat="37.294589" lon="-3.141925">
        <ele>956.479</ele>
        <time>2018-10-28T12:58:49Z</time>
      </trkpt>
      <trkpt lat="37.295363" lon="-3.141432">
        <ele>952.044</ele>
        <time>2018-10-28T13:00:09Z</time>
      </trkpt>
      <trkpt lat="37.295243" lon="-3.140946">
        <ele>948.918</ele>
        <time>2018-10-28T13:00:41Z</time>
      </trkpt>
      <trkpt lat="37.295315" lon="-3.140358">
        <ele>946.328</ele>
        <time>2018-10-28T13:01:13Z</time>
      </trkpt>
      <trkpt lat="37.295846" lon="-3.139397">
        <ele>940.625</ele>
        <time>2018-10-28T13:02:16Z</time>
      </trkpt>
      <trkpt lat="37.296691" lon="-3.139133">
        <ele>935.926</ele>
        <time>2018-10-28T13:03:19Z</time>
      </trkpt>
      <trkpt lat="37.297418" lon="-3.137730">
        <ele>932.608</ele>
        <time>2018-10-28T13:04:46Z</time>
      </trkpt>
      <trkpt lat="37.297984" lon="-3.137731">
        <ele>933.308</ele>
        <time>2018-10-28T13:05:29Z</time>
      </trkpt>
      <trkpt lat="37.298183" lon="-3.137527">
        <ele>935.235</ele>
        <time>2018-10-28T13:05:48Z</time>
      </trkpt>
      <trkpt lat="37.298480" lon="-3.136570">
        <ele>936.352</ele>
        <time>2018-10-28T13:06:48Z</time>
      </trkpt>
      <trkpt lat="37.299221" lon="-3.135902">
        <ele>932.722</ele>
        <time>2018-10-28T13:08:17Z</time>
      </trkpt>
      <trkpt lat="37.299196" lon="-3.135611">
        <ele>929.734</ele>
        <time>2018-10-28T13:08:53Z</time>
      </trkpt>
      <trkpt lat="37.299869" lon="-3.134553">
        <ele>922.319</ele>
        <time>2018-10-28T13:10:12Z</time>
      </trkpt>
      <trkpt lat="37.300118" lon="-3.134495">
        <ele>920.594</ele>
        <time>2018-10-28T13:10:49Z</time>
      </trkpt>
      <trkpt lat="37.300381" lon="-3.134659">
        <ele>920.218</ele>
        <time>2018-10-28T13:11:12Z</time>
      </trkpt>
      <trkpt lat="37.301049" lon="-3.135767">
        <ele>925.288</ele>
        <time>2018-10-28T13:19:06Z</time>
      </trkpt>
      <trkpt lat="37.300551" lon="-3.135194">
        <ele>923.145</ele>
        <time>2018-10-28T13:20:02Z</time>
      </trkpt>
      <trkpt lat="37.300444" lon="-3.134807">
        <ele>920.847</ele>
        <time>2018-10-28T13:20:37Z</time>
      </trkpt>
      <trkpt lat="37.300056" lon="-3.134453">
        <ele>920.711</ele>
        <time>2018-10-28T13:21:02Z</time>
      </trkpt>
      <trkpt lat="37.300406" lon="-3.134090">
        <ele>915.708</ele>
        <time>2018-10-28T13:21:39Z</time>
      </trkpt>
      <trkpt lat="37.300055" lon="-3.133300">
        <ele>917.257</ele>
        <time>2018-10-28T13:22:54Z</time>
      </trkpt>
      <trkpt lat="37.299534" lon="-3.133463">
        <ele>918.834</ele>
        <time>2018-10-28T13:24:34Z</time>
      </trkpt>
      <trkpt lat="37.299290" lon="-3.133777">
        <ele>918.499</ele>
        <time>2018-10-29T07:56:18Z</time>
      </trkpt>
      <trkpt lat="37.299568" lon="-3.134126">
        <ele>919.907</ele>
        <time>2018-10-29T08:03:40Z</time>
      </trkpt>
      <trkpt lat="37.299452" lon="-3.134483">
        <ele>922.127</ele>
        <time>2018-10-29T08:04:10Z</time>
      </trkpt>
      <trkpt lat="37.299746" lon="-3.134594">
        <ele>923.008</ele>
        <time>2018-10-29T08:04:29Z</time>
      </trkpt>
      <trkpt lat="37.299915" lon="-3.134390">
        <ele>920.912</ele>
        <time>2018-10-29T08:04:52Z</time>
      </trkpt>
      <trkpt lat="37.300419" lon="-3.134647">
        <ele>920.049</ele>
        <time>2018-10-29T08:05:58Z</time>
      </trkpt>
      <trkpt lat="37.300812" lon="-3.135410">
        <ele>923.169</ele>
        <time>2018-10-29T08:07:06Z</time>
      </trkpt>
      <trkpt lat="37.300803" lon="-3.136152">
        <ele>926.297</ele>
        <time>2018-10-29T08:07:55Z</time>
      </trkpt>
      <trkpt lat="37.301253" lon="-3.136630">
        <ele>923.210</ele>
        <time>2018-10-29T08:09:00Z</time>
      </trkpt>
      <trkpt lat="37.301548" lon="-3.137469">
        <ele>920.491</ele>
        <time>2018-10-29T08:09:57Z</time>
      </trkpt>
      <trkpt lat="37.301449" lon="-3.138038">
        <ele>918.961</ele>
        <time>2018-10-29T08:10:56Z</time>
      </trkpt>
      <trkpt lat="37.301029" lon="-3.138702">
        <ele>916.245</ele>
        <time>2018-10-29T08:12:04Z</time>
      </trkpt>
      <trkpt lat="37.300463" lon="-3.138705">
        <ele>921.839</ele>
        <time>2018-10-29T08:12:52Z</time>
      </trkpt>
      <trkpt lat="37.300021" lon="-3.138903">
        <ele>923.901</ele>
        <time>2018-10-29T08:13:36Z</time>
      </trkpt>
      <trkpt lat="37.300158" lon="-3.138949">
        <ele>923.021</ele>
        <time>2018-10-29T08:14:06Z</time>
      </trkpt>
      <trkpt lat="37.300211" lon="-3.139563">
        <ele>924.208</ele>
        <time>2018-10-29T08:15:08Z</time>
      </trkpt>
      <trkpt lat="37.300096" lon="-3.140509">
        <ele>930.796</ele>
        <time>2018-10-29T08:16:17Z</time>
      </trkpt>
      <trkpt lat="37.300751" lon="-3.141077">
        <ele>932.753</ele>
        <time>2018-10-29T08:17:16Z</time>
      </trkpt>
      <trkpt lat="37.301120" lon="-3.142393">
        <ele>926.153</ele>
        <time>2018-10-29T08:18:51Z</time>
      </trkpt>
      <trkpt lat="37.300738" lon="-3.144086">
        <ele>928.861</ele>
        <time>2018-10-29T08:20:40Z</time>
      </trkpt>
      <trkpt lat="37.300834" lon="-3.144211">
        <ele>929.234</ele>
        <time>2018-10-29T08:20:54Z</time>
      </trkpt>
      <trkpt lat="37.300657" lon="-3.144576">
        <ele>930.345</ele>
        <time>2018-10-29T08:21:33Z</time>
      </trkpt>
      <trkpt lat="37.300852" lon="-3.143537">
        <ele>927.035</ele>
        <time>2018-10-29T08:22:43Z</time>
      </trkpt>
      <trkpt lat="37.301348" lon="-3.143695">
        <ele>925.629</ele>
        <time>2018-10-29T08:23:21Z</time>
      </trkpt>
      <trkpt lat="37.301760" lon="-3.144325">
        <ele>926.854</ele>
        <time>2018-10-29T08:24:11Z</time>
      </trkpt>
      <trkpt lat="37.301857" lon="-3.144205">
        <ele>926.956</ele>
        <time>2018-10-29T08:24:31Z</time>
      </trkpt>
      <trkpt lat="37.301753" lon="-3.144337">
        <ele>926.811</ele>
        <time>2018-10-29T08:24:51Z</time>
      </trkpt>
      <trkpt lat="37.302733" lon="-3.146775">
        <ele>928.608</ele>
        <time>2018-10-29T08:27:47Z</time>
      </trkpt>
      <trkpt lat="37.303656" lon="-3.148842">
        <ele>919.378</ele>
        <time>2018-10-29T08:30:28Z</time>
      </trkpt>
      <trkpt lat="37.304536" lon="-3.150134">
        <ele>922.045</ele>
        <time>2018-10-29T08:32:10Z</time>
      </trkpt>
      <trkpt lat="37.305148" lon="-3.151635">
        <ele>915.065</ele>
        <time>2018-10-29T08:33:54Z</time>
      </trkpt>
      <trkpt lat="37.305196" lon="-3.152611">
        <ele>913.863</ele>
        <time>2018-10-29T08:34:53Z</time>
      </trkpt>
      <trkpt lat="37.305564" lon="-3.153670">
        <ele>913.296</ele>
        <time>2018-10-29T08:36:05Z</time>
      </trkpt>
      <trkpt lat="37.305309" lon="-3.155585">
        <ele>916.727</ele>
        <time>2018-10-29T08:38:06Z</time>
      </trkpt>
      <trkpt lat="37.305567" lon="-3.156236">
        <ele>913.997</ele>
        <time>2018-10-29T08:38:50Z</time>
      </trkpt>
      <trkpt lat="37.305721" lon="-3.157369">
        <ele>914.241</ele>
        <time>2018-10-29T08:40:04Z</time>
      </trkpt>
      <trkpt lat="37.305580" lon="-3.158852">
        <ele>917.897</ele>
        <time>2018-10-29T08:41:34Z</time>
      </trkpt>
      <trkpt lat="37.305833" lon="-3.160535">
        <ele>924.023</ele>
        <time>2018-10-29T08:43:13Z</time>
      </trkpt>
      <trkpt lat="37.305785" lon="-3.160857">
        <ele>925.725</ele>
        <time>2018-10-29T08:43:31Z</time>
      </trkpt>
      <trkpt lat="37.304993" lon="-3.162354">
        <ele>932.108</ele>
        <time>2018-10-29T08:48:06Z</time>
      </trkpt>
      <trkpt lat="37.305015" lon="-3.162911">
        <ele>932.552</ele>
        <time>2018-10-29T08:48:36Z</time>
      </trkpt>
      <trkpt lat="37.305655" lon="-3.164071">
        <ele>939.399</ele>
        <time>2018-10-29T08:50:07Z</time>
      </trkpt>
      <trkpt lat="37.305711" lon="-3.164528">
        <ele>941.519</ele>
        <time>2018-10-29T08:50:34Z</time>
      </trkpt>
      <trkpt lat="37.304970" lon="-3.166328">
        <ele>948.787</ele>
        <time>2018-10-29T08:52:31Z</time>
      </trkpt>
      <trkpt lat="37.304669" lon="-3.167599">
        <ele>959.770</ele>
        <time>2018-10-29T08:53:53Z</time>
      </trkpt>
      <trkpt lat="37.304931" lon="-3.168781">
        <ele>959.771</ele>
        <time>2018-10-29T08:55:17Z</time>
      </trkpt>
      <trkpt lat="37.305964" lon="-3.168648">
        <ele>963.181</ele>
        <time>2018-10-29T08:56:35Z</time>
      </trkpt>
      <trkpt lat="37.306690" lon="-3.169206">
        <ele>973.545</ele>
        <time>2018-10-29T08:58:08Z</time>
      </trkpt>
      <trkpt lat="37.306196" lon="-3.170643">
        <ele>978.158</ele>
        <time>2018-10-29T09:00:41Z</time>
      </trkpt>
      <trkpt lat="37.305744" lon="-3.171424">
        <ele>980.552</ele>
        <time>2018-10-29T09:01:36Z</time>
      </trkpt>
      <trkpt lat="37.305471" lon="-3.171575">
        <ele>978.917</ele>
        <time>2018-10-29T09:01:57Z</time>
      </trkpt>
      <trkpt lat="37.304965" lon="-3.171569">
        <ele>974.908</ele>
        <time>2018-10-29T09:02:33Z</time>
      </trkpt>
      <trkpt lat="37.304584" lon="-3.171907">
        <ele>975.928</ele>
        <time>2018-10-29T09:03:05Z</time>
      </trkpt>
      <trkpt lat="37.304134" lon="-3.172068">
        <ele>978.025</ele>
        <time>2018-10-29T09:03:38Z</time>
      </trkpt>
      <trkpt lat="37.303918" lon="-3.172596">
        <ele>982.795</ele>
        <time>2018-10-29T09:04:12Z</time>
      </trkpt>
      <trkpt lat="37.302608" lon="-3.173870">
        <ele>992.583</ele>
        <time>2018-10-29T09:06:19Z</time>
      </trkpt>
      <trkpt lat="37.301846" lon="-3.175031">
        <ele>999.266</ele>
        <time>2018-10-29T09:07:43Z</time>
      </trkpt>
      <trkpt lat="37.301716" lon="-3.175549">
        <ele>1002.087</ele>
        <time>2018-10-29T09:08:22Z</time>
      </trkpt>
      <trkpt lat="37.301886" lon="-3.176028">
        <ele>1005.467</ele>
        <time>2018-10-29T09:08:57Z</time>
      </trkpt>
      <trkpt lat="37.302475" lon="-3.176361">
        <ele>1017.231</ele>
        <time>2018-10-29T09:09:52Z</time>
      </trkpt>
      <trkpt lat="37.302593" lon="-3.177209">
        <ele>1018.443</ele>
        <time>2018-10-29T09:10:50Z</time>
      </trkpt>
      <trkpt lat="37.302354" lon="-3.177540">
        <ele>1015.364</ele>
        <time>2018-10-29T09:11:24Z</time>
      </trkpt>
      <trkpt lat="37.302492" lon="-3.178222">
        <ele>1015.110</ele>
        <time>2018-10-29T09:12:13Z</time>
      </trkpt>
      <trkpt lat="37.302893" lon="-3.178919">
        <ele>1005.508</ele>
        <time>2018-10-29T09:13:00Z</time>
      </trkpt>
      <trkpt lat="37.303337" lon="-3.179051">
        <ele>1003.177</ele>
        <time>2018-10-29T09:13:33Z</time>
      </trkpt>
      <trkpt lat="37.303737" lon="-3.178993">
        <ele>1001.274</ele>
        <time>2018-10-29T09:14:01Z</time>
      </trkpt>
      <trkpt lat="37.304088" lon="-3.178509">
        <ele>1000.084</ele>
        <time>2018-10-29T09:14:40Z</time>
      </trkpt>
      <trkpt lat="37.305422" lon="-3.178167">
        <ele>995.192</ele>
        <time>2018-10-29T09:16:17Z</time>
      </trkpt>
      <trkpt lat="37.305885" lon="-3.177575">
        <ele>992.015</ele>
        <time>2018-10-29T09:17:00Z</time>
      </trkpt>
      <trkpt lat="37.307019" lon="-3.176736">
        <ele>983.126</ele>
        <time>2018-10-29T09:18:30Z</time>
      </trkpt>
      <trkpt lat="37.307636" lon="-3.176737">
        <ele>980.126</ele>
        <time>2018-10-29T09:19:12Z</time>
      </trkpt>
      <trkpt lat="37.308617" lon="-3.177006">
        <ele>976.990</ele>
        <time>2018-10-29T09:20:20Z</time>
      </trkpt>
      <trkpt lat="37.309278" lon="-3.176911">
        <ele>970.157</ele>
        <time>2018-10-29T09:21:02Z</time>
      </trkpt>
      <trkpt lat="37.310317" lon="-3.176372">
        <ele>965.000</ele>
        <time>2018-10-29T09:22:13Z</time>
      </trkpt>
      <trkpt lat="37.311478" lon="-3.176796">
        <ele>960.520</ele>
        <time>2018-10-29T09:23:33Z</time>
      </trkpt>
      <trkpt lat="37.312015" lon="-3.176572">
        <ele>956.308</ele>
        <time>2018-10-29T09:24:09Z</time>
      </trkpt>
      <trkpt lat="37.312489" lon="-3.176152">
        <ele>955.248</ele>
        <time>2018-10-29T09:24:47Z</time>
      </trkpt>
      <trkpt lat="37.313545" lon="-3.176306">
        <ele>946.725</ele>
        <time>2018-10-29T09:25:55Z</time>
      </trkpt>
      <trkpt lat="37.313946" lon="-3.176179">
        <ele>947.545</ele>
        <time>2018-10-29T09:26:23Z</time>
      </trkpt>
      <trkpt lat="37.315117" lon="-3.175307">
        <ele>942.183</ele>
        <time>2018-10-29T09:27:58Z</time>
      </trkpt>
      <trkpt lat="37.316083" lon="-3.175230">
        <ele>931.236</ele>
        <time>2018-10-29T09:29:02Z</time>
      </trkpt>
      <trkpt lat="37.316385" lon="-3.175357">
        <ele>932.127</ele>
        <time>2018-10-29T09:29:24Z</time>
      </trkpt>
      <trkpt lat="37.316009" lon="-3.175841">
        <ele>939.417</ele>
        <time>2018-10-29T09:30:15Z</time>
      </trkpt>
      <trkpt lat="37.315970" lon="-3.176587">
        <ele>946.661</ele>
        <time>2018-10-29T09:30:56Z</time>
      </trkpt>
      <trkpt lat="37.315763" lon="-3.176886">
        <ele>950.321</ele>
        <time>2018-10-29T09:31:21Z</time>
      </trkpt>
      <trkpt lat="37.315640" lon="-3.177578">
        <ele>951.941</ele>
        <time>2018-10-29T09:31:59Z</time>
      </trkpt>
      <trkpt lat="37.315931" lon="-3.178142">
        <ele>953.305</ele>
        <time>2018-10-29T09:32:41Z</time>
      </trkpt>
      <trkpt lat="37.315582" lon="-3.179762">
        <ele>967.108</ele>
        <time>2018-10-29T09:34:35Z</time>
      </trkpt>
      <trkpt lat="37.315804" lon="-3.180889">
        <ele>955.535</ele>
        <time>2018-10-29T09:35:37Z</time>
      </trkpt>
      <trkpt lat="37.315251" lon="-3.182527">
        <ele>942.712</ele>
        <time>2018-10-29T09:37:26Z</time>
      </trkpt>
      <trkpt lat="37.315254" lon="-3.183963">
        <ele>932.312</ele>
        <time>2018-10-29T09:38:57Z</time>
      </trkpt>
      <trkpt lat="37.315556" lon="-3.184097">
        <ele>932.360</ele>
        <time>2018-10-29T09:39:21Z</time>
      </trkpt>
      <trkpt lat="37.316120" lon="-3.184050">
        <ele>934.233</ele>
        <time>2018-10-29T09:39:57Z</time>
      </trkpt>
      <trkpt lat="37.316223" lon="-3.184184">
        <ele>932.434</ele>
        <time>2018-10-29T09:40:10Z</time>
      </trkpt>
      <trkpt lat="37.316751" lon="-3.185917">
        <ele>920.874</ele>
        <time>2018-10-29T09:43:03Z</time>
      </trkpt>
      <trkpt lat="37.316862" lon="-3.187768">
        <ele>911.838</ele>
        <time>2018-10-29T09:44:52Z</time>
      </trkpt>
      <trkpt lat="37.317249" lon="-3.188097">
        <ele>913.339</ele>
        <time>2018-10-29T09:45:51Z</time>
      </trkpt>
      <trkpt lat="37.317496" lon="-3.189497">
        <ele>906.801</ele>
        <time>2018-10-29T09:47:23Z</time>
      </trkpt>
      <trkpt lat="37.317375" lon="-3.189332">
        <ele>907.221</ele>
        <time>2018-10-29T09:47:42Z</time>
      </trkpt>
      <trkpt lat="37.317010" lon="-3.189507">
        <ele>906.808</ele>
        <time>2018-10-29T09:48:10Z</time>
      </trkpt>
      <trkpt lat="37.316737" lon="-3.189118">
        <ele>907.276</ele>
        <time>2018-10-29T09:48:56Z</time>
      </trkpt>
      <trkpt lat="37.316314" lon="-3.190470">
        <ele>898.773</ele>
        <time>2018-10-29T09:50:18Z</time>
      </trkpt>
      <trkpt lat="37.316371" lon="-3.190004">
        <ele>901.973</ele>
        <time>2018-10-29T09:51:01Z</time>
      </trkpt>
      <trkpt lat="37.315973" lon="-3.189949">
        <ele>901.171</ele>
        <time>2018-10-29T09:51:26Z</time>
      </trkpt>
      <trkpt lat="37.315747" lon="-3.189478">
        <ele>901.654</ele>
        <time>2018-10-29T09:52:01Z</time>
      </trkpt>
      <trkpt lat="37.315076" lon="-3.189473">
        <ele>901.135</ele>
        <time>2018-10-29T10:05:47Z</time>
      </trkpt>
      <trkpt lat="37.315089" lon="-3.189379">
        <ele>900.945</ele>
        <time>2018-10-29T10:05:48Z</time>
      </trkpt>
      <trkpt lat="37.314932" lon="-3.190001">
        <ele>900.249</ele>
        <time>2018-10-29T10:05:50Z</time>
      </trkpt>
      <trkpt lat="37.315041" lon="-3.189654">
        <ele>901.664</ele>
        <time>2018-10-29T10:05:59Z</time>
      </trkpt>
      <trkpt lat="37.314712" lon="-3.189581">
        <ele>903.006</ele>
        <time>2018-10-29T10:06:51Z</time>
      </trkpt>
      <trkpt lat="37.314682" lon="-3.189424">
        <ele>903.016</ele>
        <time>2018-10-29T10:07:35Z</time>
      </trkpt>
      <trkpt lat="37.314462" lon="-3.189731">
        <ele>902.908</ele>
        <time>2018-10-29T10:07:47Z</time>
      </trkpt>
      <trkpt lat="37.314470" lon="-3.190123">
        <ele>899.259</ele>
        <time>2018-10-29T10:08:06Z</time>
      </trkpt>
      <trkpt lat="37.314660" lon="-3.189808">
        <ele>902.316</ele>
        <time>2018-10-29T10:10:54Z</time>
      </trkpt>
      <trkpt lat="37.312929" lon="-3.191644">
        <ele>891.186</ele>
        <time>2018-10-29T10:11:01Z</time>
      </trkpt>
      <trkpt lat="37.311954" lon="-3.191720">
        <ele>890.894</ele>
        <time>2018-10-29T10:11:53Z</time>
      </trkpt>
      <trkpt lat="37.312127" lon="-3.191690">
        <ele>891.597</ele>
        <time>2018-10-29T10:11:55Z</time>
      </trkpt>
      <trkpt lat="37.310689" lon="-3.191381">
        <ele>890.058</ele>
        <time>2018-10-29T10:13:40Z</time>
      </trkpt>
      <trkpt lat="37.310736" lon="-3.191647">
        <ele>889.788</ele>
        <time>2018-10-29T10:13:50Z</time>
      </trkpt>
      <trkpt lat="37.310102" lon="-3.192249">
        <ele>890.892</ele>
        <time>2018-10-29T10:14:46Z</time>
      </trkpt>
      <trkpt lat="37.309734" lon="-3.192495">
        <ele>889.171</ele>
        <time>2018-10-29T10:15:14Z</time>
      </trkpt>
      <trkpt lat="37.309121" lon="-3.192461">
        <ele>892.341</ele>
        <time>2018-10-29T10:15:57Z</time>
      </trkpt>
      <trkpt lat="37.308744" lon="-3.192798">
        <ele>889.415</ele>
        <time>2018-10-29T10:16:29Z</time>
      </trkpt>
      <trkpt lat="37.308391" lon="-3.192892">
        <ele>889.408</ele>
        <time>2018-10-29T10:16:54Z</time>
      </trkpt>
      <trkpt lat="37.307608" lon="-3.193972">
        <ele>890.260</ele>
        <time>2018-10-29T10:18:18Z</time>
      </trkpt>
      <trkpt lat="37.307307" lon="-3.194019">
        <ele>892.177</ele>
        <time>2018-10-29T10:18:30Z</time>
      </trkpt>
      <trkpt lat="37.306785" lon="-3.194423">
        <ele>894.627</ele>
        <time>2018-10-29T10:19:13Z</time>
      </trkpt>
      <trkpt lat="37.306467" lon="-3.194458">
        <ele>894.285</ele>
        <time>2018-10-29T10:19:34Z</time>
      </trkpt>
      <trkpt lat="37.306127" lon="-3.195062">
        <ele>889.878</ele>
        <time>2018-10-29T10:20:15Z</time>
      </trkpt>
      <trkpt lat="37.304068" lon="-3.195898">
        <ele>890.759</ele>
        <time>2018-10-29T10:22:36Z</time>
      </trkpt>
      <trkpt lat="37.303834" lon="-3.195860">
        <ele>891.879</ele>
        <time>2018-10-29T10:22:56Z</time>
      </trkpt>
      <trkpt lat="37.303632" lon="-3.195616">
        <ele>893.653</ele>
        <time>2018-10-29T10:23:27Z</time>
      </trkpt>
      <trkpt lat="37.302525" lon="-3.196036">
        <ele>892.825</ele>
        <time>2018-10-29T10:24:44Z</time>
      </trkpt>
      <trkpt lat="37.301656" lon="-3.196010">
        <ele>892.426</ele>
        <time>2018-10-29T10:25:43Z</time>
      </trkpt>
      <trkpt lat="37.299540" lon="-3.196973">
        <ele>894.408</ele>
        <time>2018-10-29T10:28:05Z</time>
      </trkpt>
      <trkpt lat="37.299413" lon="-3.197495">
        <ele>894.008</ele>
        <time>2018-10-29T10:28:43Z</time>
      </trkpt>
      <trkpt lat="37.298655" lon="-3.198639">
        <ele>894.925</ele>
        <time>2018-10-29T10:30:17Z</time>
      </trkpt>
      <trkpt lat="37.298919" lon="-3.198416">
        <ele>895.732</ele>
        <time>2018-10-29T10:32:17Z</time>
      </trkpt>
      <trkpt lat="37.298237" lon="-3.199802">
        <ele>902.632</ele>
        <time>2018-10-29T10:32:18Z</time>
      </trkpt>
      <trkpt lat="37.297515" lon="-3.200824">
        <ele>909.080</ele>
        <time>2018-10-29T10:33:03Z</time>
      </trkpt>
      <trkpt lat="37.297376" lon="-3.200675">
        <ele>908.263</ele>
        <time>2018-10-29T10:33:06Z</time>
      </trkpt>
      <trkpt lat="37.297592" lon="-3.201362">
        <ele>914.664</ele>
        <time>2018-10-29T10:33:56Z</time>
      </trkpt>
      <trkpt lat="37.297611" lon="-3.201267">
        <ele>912.874</ele>
        <time>2018-10-29T10:34:04Z</time>
      </trkpt>
      <trkpt lat="37.297742" lon="-3.201345">
        <ele>912.748</ele>
        <time>2018-10-29T10:34:17Z</time>
      </trkpt>
      <trkpt lat="37.298058" lon="-3.201717">
        <ele>919.112</ele>
        <time>2018-10-29T10:35:40Z</time>
      </trkpt>
      <trkpt lat="37.298373" lon="-3.201815">
        <ele>919.432</ele>
        <time>2018-10-29T10:36:01Z</time>
      </trkpt>
      <trkpt lat="37.298611" lon="-3.201582">
        <ele>913.805</ele>
        <time>2018-10-29T10:36:36Z</time>
      </trkpt>
      <trkpt lat="37.298051" lon="-3.201544">
        <ele>915.008</ele>
        <time>2018-10-29T10:37:08Z</time>
      </trkpt>
      <trkpt lat="37.299257" lon="-3.202014">
        <ele>928.144</ele>
        <time>2018-10-29T10:37:42Z</time>
      </trkpt>
      <trkpt lat="37.299831" lon="-3.201660">
        <ele>916.781</ele>
        <time>2018-10-29T10:38:38Z</time>
      </trkpt>
      <trkpt lat="37.300436" lon="-3.201913">
        <ele>916.931</ele>
        <time>2018-10-29T10:39:24Z</time>
      </trkpt>
      <trkpt lat="37.301233" lon="-3.201918">
        <ele>913.859</ele>
        <time>2018-10-29T10:40:29Z</time>
      </trkpt>
      <trkpt lat="37.301615" lon="-3.201691">
        <ele>913.482</ele>
        <time>2018-10-29T10:41:03Z</time>
      </trkpt>
      <trkpt lat="37.302065" lon="-3.201885">
        <ele>919.883</ele>
        <time>2018-10-29T10:41:46Z</time>
      </trkpt>
      <trkpt lat="37.302544" lon="-3.201835">
        <ele>930.143</ele>
        <time>2018-10-29T10:42:46Z</time>
      </trkpt>
      <trkpt lat="37.302655" lon="-3.201671">
        <ele>930.727</ele>
        <time>2018-10-29T10:42:55Z</time>
      </trkpt>
      <trkpt lat="37.302308" lon="-3.201714">
        <ele>923.622</ele>
        <time>2018-10-29T10:43:16Z</time>
      </trkpt>
      <trkpt lat="37.302787" lon="-3.201524">
        <ele>930.362</ele>
        <time>2018-10-29T10:43:17Z</time>
      </trkpt>
      <trkpt lat="37.302794" lon="-3.201369">
        <ele>928.408</ele>
        <time>2018-10-29T10:43:35Z</time>
      </trkpt>
      <trkpt lat="37.302409" lon="-3.201610">
        <ele>926.008</ele>
        <time>2018-10-29T10:43:53Z</time>
      </trkpt>
      <trkpt lat="37.302707" lon="-3.201581">
        <ele>930.455</ele>
        <time>2018-10-29T10:43:56Z</time>
      </trkpt>
      <trkpt lat="37.302455" lon="-3.201641">
        <ele>927.542</ele>
        <time>2018-10-29T10:45:33Z</time>
      </trkpt>
      <trkpt lat="37.303074" lon="-3.202675">
        <ele>935.652</ele>
        <time>2018-10-29T10:45:36Z</time>
      </trkpt>
      <trkpt lat="37.303235" lon="-3.203238">
        <ele>938.630</ele>
        <time>2018-10-29T10:46:00Z</time>
      </trkpt>
      <trkpt lat="37.304004" lon="-3.204102">
        <ele>934.713</ele>
        <time>2018-10-29T10:47:13Z</time>
      </trkpt>
      <trkpt lat="37.303988" lon="-3.204953">
        <ele>937.484</ele>
        <time>2018-10-29T10:48:02Z</time>
      </trkpt>
      <trkpt lat="37.303874" lon="-3.204983">
        <ele>937.914</ele>
        <time>2018-10-29T10:48:19Z</time>
      </trkpt>
      <trkpt lat="37.304218" lon="-3.205568">
        <ele>948.358</ele>
        <time>2018-10-29T10:49:11Z</time>
      </trkpt>
      <trkpt lat="37.304369" lon="-3.206215">
        <ele>944.716</ele>
        <time>2018-10-29T10:49:54Z</time>
      </trkpt>
      <trkpt lat="37.304068" lon="-3.207140">
        <ele>941.876</ele>
        <time>2018-10-29T10:50:49Z</time>
      </trkpt>
      <trkpt lat="37.304243" lon="-3.207346">
        <ele>937.413</ele>
        <time>2018-10-29T10:51:06Z</time>
      </trkpt>
      <trkpt lat="37.304600" lon="-3.207435">
        <ele>930.208</ele>
        <time>2018-10-29T10:51:35Z</time>
      </trkpt>
      <trkpt lat="37.304843" lon="-3.207763">
        <ele>930.844</ele>
        <time>2018-10-29T10:52:01Z</time>
      </trkpt>
      <trkpt lat="37.304462" lon="-3.208357">
        <ele>940.331</ele>
        <time>2018-10-29T10:52:46Z</time>
      </trkpt>
      <trkpt lat="37.304254" lon="-3.209052">
        <ele>943.411</ele>
        <time>2018-10-29T10:54:27Z</time>
      </trkpt>
      <trkpt lat="37.303703" lon="-3.209316">
        <ele>942.169</ele>
        <time>2018-10-29T10:55:38Z</time>
      </trkpt>
      <trkpt lat="37.303457" lon="-3.209772">
        <ele>945.822</ele>
        <time>2018-10-29T10:56:27Z</time>
      </trkpt>
      <trkpt lat="37.303531" lon="-3.210478">
        <ele>947.163</ele>
        <time>2018-10-29T10:57:15Z</time>
      </trkpt>
      <trkpt lat="37.303383" lon="-3.210845">
        <ele>948.543</ele>
        <time>2018-10-29T10:57:36Z</time>
      </trkpt>
      <trkpt lat="37.302531" lon="-3.211652">
        <ele>951.147</ele>
        <time>2018-10-29T10:58:47Z</time>
      </trkpt>
      <trkpt lat="37.301959" lon="-3.212658">
        <ele>956.787</ele>
        <time>2018-10-29T10:59:58Z</time>
      </trkpt>
      <trkpt lat="37.302105" lon="-3.213903">
        <ele>955.242</ele>
        <time>2018-10-29T11:01:18Z</time>
      </trkpt>
      <trkpt lat="37.301751" lon="-3.214807">
        <ele>943.726</ele>
        <time>2018-10-29T11:02:14Z</time>
      </trkpt>
      <trkpt lat="37.302015" lon="-3.215220">
        <ele>943.808</ele>
        <time>2018-10-29T11:03:01Z</time>
      </trkpt>
      <trkpt lat="37.302508" lon="-3.215560">
        <ele>943.991</ele>
        <time>2018-10-29T11:03:48Z</time>
      </trkpt>
      <trkpt lat="37.302646" lon="-3.216372">
        <ele>956.128</ele>
        <time>2018-10-29T11:04:43Z</time>
      </trkpt>
      <trkpt lat="37.302459" lon="-3.216809">
        <ele>958.688</ele>
        <time>2018-10-29T11:05:22Z</time>
      </trkpt>
      <trkpt lat="37.302642" lon="-3.217224">
        <ele>958.576</ele>
        <time>2018-10-29T11:05:51Z</time>
      </trkpt>
      <trkpt lat="37.303916" lon="-3.218524">
        <ele>974.219</ele>
        <time>2018-10-29T11:08:01Z</time>
      </trkpt>
      <trkpt lat="37.303730" lon="-3.218708">
        <ele>974.750</ele>
        <time>2018-10-29T11:08:51Z</time>
      </trkpt>
      <trkpt lat="37.303619" lon="-3.218549">
        <ele>971.250</ele>
        <time>2018-10-29T11:10:00Z</time>
      </trkpt>
      <trkpt lat="37.303133" lon="-3.219158">
        <ele>977.094</ele>
        <time>2018-10-29T11:11:00Z</time>
      </trkpt>
      <trkpt lat="37.303132" lon="-3.220257">
        <ele>982.364</ele>
        <time>2018-10-29T11:13:14Z</time>
      </trkpt>
      <trkpt lat="37.302862" lon="-3.220866">
        <ele>983.506</ele>
        <time>2018-10-29T11:41:23Z</time>
      </trkpt>
      <trkpt lat="37.303054" lon="-3.221965">
        <ele>991.116</ele>
        <time>2018-10-29T11:42:53Z</time>
      </trkpt>
      <trkpt lat="37.302870" lon="-3.221367">
        <ele>987.208</ele>
        <time>2018-10-29T11:43:34Z</time>
      </trkpt>
      <trkpt lat="37.302608" lon="-3.222359">
        <ele>987.629</ele>
        <time>2018-10-29T11:44:38Z</time>
      </trkpt>
      <trkpt lat="37.301946" lon="-3.223761">
        <ele>993.626</ele>
        <time>2018-10-29T11:46:14Z</time>
      </trkpt>
      <trkpt lat="37.302044" lon="-3.224371">
        <ele>1004.296</ele>
        <time>2018-10-29T11:47:02Z</time>
      </trkpt>
      <trkpt lat="37.302566" lon="-3.225482">
        <ele>1006.454</ele>
        <time>2018-10-29T11:48:21Z</time>
      </trkpt>
      <trkpt lat="37.304327" lon="-3.226577">
        <ele>981.677</ele>
        <time>2018-10-29T11:50:46Z</time>
      </trkpt>
      <trkpt lat="37.305172" lon="-3.227450">
        <ele>971.988</ele>
        <time>2018-10-29T11:51:58Z</time>
      </trkpt>
      <trkpt lat="37.305631" lon="-3.228250">
        <ele>975.168</ele>
        <time>2018-10-29T11:52:55Z</time>
      </trkpt>
      <trkpt lat="37.306755" lon="-3.229189">
        <ele>983.452</ele>
        <time>2018-10-29T11:54:30Z</time>
      </trkpt>
      <trkpt lat="37.306982" lon="-3.231215">
        <ele>977.843</ele>
        <time>2018-10-29T11:56:30Z</time>
      </trkpt>
      <trkpt lat="37.306687" lon="-3.232697">
        <ele>968.964</ele>
        <time>2018-10-29T11:57:56Z</time>
      </trkpt>
      <trkpt lat="37.306842" lon="-3.234737">
        <ele>967.610</ele>
        <time>2018-10-29T11:59:52Z</time>
      </trkpt>
      <trkpt lat="37.303796" lon="-3.236091">
        <ele>977.008</ele>
        <time>2018-10-29T12:03:46Z</time>
      </trkpt>
      <trkpt lat="37.302252" lon="-3.236948">
        <ele>981.057</ele>
        <time>2018-10-29T12:05:47Z</time>
      </trkpt>
      <trkpt lat="37.300514" lon="-3.238164">
        <ele>989.894</ele>
        <time>2018-10-29T12:08:02Z</time>
      </trkpt>
      <trkpt lat="37.298643" lon="-3.239569">
        <ele>997.124</ele>
        <time>2018-10-29T12:10:37Z</time>
      </trkpt>
      <trkpt lat="37.293921" lon="-3.243756">
        <ele>1016.122</ele>
        <time>2018-10-29T12:17:20Z</time>
      </trkpt>
      <trkpt lat="37.293351" lon="-3.244460">
        <ele>1015.025</ele>
        <time>2018-10-29T12:18:24Z</time>
      </trkpt>
      <trkpt lat="37.293086" lon="-3.244500">
        <ele>1017.016</ele>
        <time>2018-10-29T12:18:44Z</time>
      </trkpt>
      <trkpt lat="37.291205" lon="-3.245990">
        <ele>1024.446</ele>
        <time>2018-10-29T12:21:27Z</time>
      </trkpt>
      <trkpt lat="37.286768" lon="-3.247900">
        <ele>1040.140</ele>
        <time>2018-10-29T12:27:25Z</time>
      </trkpt>
      <trkpt lat="37.286209" lon="-3.248029">
        <ele>1043.785</ele>
        <time>2018-10-29T12:28:05Z</time>
      </trkpt>
      <trkpt lat="37.285814" lon="-3.248370">
        <ele>1045.389</ele>
        <time>2018-10-29T12:28:47Z</time>
      </trkpt>
      <trkpt lat="37.285464" lon="-3.248356">
        <ele>1045.517</ele>
        <time>2018-10-29T12:29:23Z</time>
      </trkpt>
      <trkpt lat="37.285595" lon="-3.248025">
        <ele>1045.108</ele>
        <time>2018-10-29T12:30:20Z</time>
      </trkpt>
      <trkpt lat="37.285421" lon="-3.248819">
        <ele>1048.531</ele>
        <time>2018-10-29T12:31:19Z</time>
      </trkpt>
      <trkpt lat="37.283348" lon="-3.251063">
        <ele>1064.068</ele>
        <time>2018-10-29T12:34:55Z</time>
      </trkpt>
      <trkpt lat="37.283047" lon="-3.251814">
        <ele>1067.178</ele>
        <time>2018-10-29T12:35:40Z</time>
      </trkpt>
      <trkpt lat="37.282598" lon="-3.252201">
        <ele>1070.486</ele>
        <time>2018-10-29T12:36:25Z</time>
      </trkpt>
      <trkpt lat="37.281782" lon="-3.253354">
        <ele>1076.669</ele>
        <time>2018-10-29T12:37:55Z</time>
      </trkpt>
      <trkpt lat="37.281364" lon="-3.254537">
        <ele>1072.210</ele>
        <time>2018-10-29T12:39:12Z</time>
      </trkpt>
      <trkpt lat="37.281316" lon="-3.255568">
        <ele>1060.230</ele>
        <time>2018-10-29T12:40:13Z</time>
      </trkpt>
      <trkpt lat="37.280728" lon="-3.256223">
        <ele>1061.064</ele>
        <time>2018-10-29T12:41:08Z</time>
      </trkpt>
      <trkpt lat="37.280355" lon="-3.257216">
        <ele>1063.236</ele>
        <time>2018-10-29T12:42:07Z</time>
      </trkpt>
      <trkpt lat="37.280268" lon="-3.258079">
        <ele>1060.717</ele>
        <time>2018-10-29T12:44:13Z</time>
      </trkpt>
      <trkpt lat="37.279612" lon="-3.258656">
        <ele>1062.818</ele>
        <time>2018-10-29T12:45:17Z</time>
      </trkpt>
      <trkpt lat="37.279243" lon="-3.259207">
        <ele>1060.108</ele>
        <time>2018-10-29T12:46:00Z</time>
      </trkpt>
      <trkpt lat="37.279066" lon="-3.260111">
        <ele>1062.626</ele>
        <time>2018-10-29T12:46:54Z</time>
      </trkpt>
      <trkpt lat="37.279147" lon="-3.261023">
        <ele>1040.733</ele>
        <time>2018-10-29T12:48:12Z</time>
      </trkpt>
      <trkpt lat="37.277723" lon="-3.261342">
        <ele>1047.333</ele>
        <time>2018-10-29T12:49:58Z</time>
      </trkpt>
      <trkpt lat="37.277455" lon="-3.261714">
        <ele>1047.861</ele>
        <time>2018-10-29T12:50:33Z</time>
      </trkpt>
      <trkpt lat="37.277456" lon="-3.262312">
        <ele>1044.284</ele>
        <time>2018-10-29T12:51:02Z</time>
      </trkpt>
      <trkpt lat="37.278050" lon="-3.262575">
        <ele>1031.865</ele>
        <time>2018-10-29T12:51:49Z</time>
      </trkpt>
      <trkpt lat="37.278370" lon="-3.263440">
        <ele>1027.785</ele>
        <time>2018-10-29T12:52:48Z</time>
      </trkpt>
      <trkpt lat="37.278578" lon="-3.264817">
        <ele>1027.789</ele>
        <time>2018-10-29T12:54:06Z</time>
      </trkpt>
      <trkpt lat="37.278376" lon="-3.266630">
        <ele>1036.928</ele>
        <time>2018-10-29T12:55:55Z</time>
      </trkpt>
      <trkpt lat="37.278610" lon="-3.267429">
        <ele>1037.789</ele>
        <time>2018-10-29T12:56:45Z</time>
      </trkpt>
      <trkpt lat="37.278586" lon="-3.267889">
        <ele>1040.217</ele>
        <time>2018-10-29T12:57:12Z</time>
      </trkpt>
      <trkpt lat="37.277999" lon="-3.269198">
        <ele>1043.108</ele>
        <time>2018-10-29T12:58:41Z</time>
      </trkpt>
      <trkpt lat="37.278096" lon="-3.270067">
        <ele>1050.525</ele>
        <time>2018-10-29T12:59:37Z</time>
      </trkpt>
      <trkpt lat="37.277043" lon="-3.271586">
        <ele>1065.362</ele>
        <time>2018-10-29T13:01:55Z</time>
      </trkpt>
      <trkpt lat="37.276646" lon="-3.272704">
        <ele>1080.952</ele>
        <time>2018-10-29T13:03:11Z</time>
      </trkpt>
      <trkpt lat="37.276513" lon="-3.272792">
        <ele>1084.090</ele>
        <time>2018-10-29T13:03:26Z</time>
      </trkpt>
      <trkpt lat="37.276328" lon="-3.272663">
        <ele>1083.363</ele>
        <time>2018-10-29T13:03:41Z</time>
      </trkpt>
      <trkpt lat="37.276057" lon="-3.272132">
        <ele>1076.314</ele>
        <time>2018-10-29T13:04:28Z</time>
      </trkpt>
      <trkpt lat="37.275804" lon="-3.272441">
        <ele>1076.654</ele>
        <time>2018-10-29T13:04:56Z</time>
      </trkpt>
      <trkpt lat="37.275888" lon="-3.274947">
        <ele>1098.318</ele>
        <time>2018-10-29T13:07:28Z</time>
      </trkpt>
      <trkpt lat="37.276132" lon="-3.274961">
        <ele>1095.271</ele>
        <time>2018-10-29T13:07:58Z</time>
      </trkpt>
      <trkpt lat="37.276458" lon="-3.274600">
        <ele>1101.741</ele>
        <time>2018-10-29T13:08:32Z</time>
      </trkpt>
      <trkpt lat="37.277192" lon="-3.274768">
        <ele>1099.715</ele>
        <time>2018-10-29T13:09:26Z</time>
      </trkpt>
      <trkpt lat="37.277523" lon="-3.276074">
        <ele>1080.908</ele>
        <time>2018-10-29T13:11:05Z</time>
      </trkpt>
      <trkpt lat="37.277243" lon="-3.278049">
        <ele>1053.980</ele>
        <time>2018-10-29T13:13:09Z</time>
      </trkpt>
      <trkpt lat="37.277283" lon="-3.278421">
        <ele>1047.987</ele>
        <time>2018-10-29T13:14:14Z</time>
      </trkpt>
      <trkpt lat="37.277438" lon="-3.278560">
        <ele>1045.557</ele>
        <time>2018-10-29T13:14:36Z</time>
      </trkpt>
      <trkpt lat="37.277352" lon="-3.278699">
        <ele>1042.365</ele>
        <time>2018-10-29T13:14:47Z</time>
      </trkpt>
      <trkpt lat="37.276892" lon="-3.278770">
        <ele>1037.368</ele>
        <time>2018-10-29T13:15:24Z</time>
      </trkpt>
      <trkpt lat="37.276712" lon="-3.279095">
        <ele>1027.499</ele>
        <time>2018-10-29T13:15:45Z</time>
      </trkpt>
      <trkpt lat="37.276556" lon="-3.280882">
        <ele>1001.919</ele>
        <time>2018-10-29T13:17:26Z</time>
      </trkpt>
      <trkpt lat="37.276186" lon="-3.281940">
        <ele>990.383</ele>
        <time>2018-10-29T13:18:48Z</time>
      </trkpt>
      <trkpt lat="37.276201" lon="-3.282874">
        <ele>980.372</ele>
        <time>2018-10-29T13:19:46Z</time>
      </trkpt>
      <trkpt lat="37.276699" lon="-3.283118">
        <ele>981.113</ele>
        <time>2018-10-29T13:20:42Z</time>
      </trkpt>
      <trkpt lat="37.276878" lon="-3.283857">
        <ele>983.114</ele>
        <time>2018-10-29T13:21:28Z</time>
      </trkpt>
      <trkpt lat="37.276795" lon="-3.284338">
        <ele>987.608</ele>
        <time>2018-10-29T13:22:06Z</time>
      </trkpt>
      <trkpt lat="37.276219" lon="-3.284749">
        <ele>996.510</ele>
        <time>2018-10-29T13:23:41Z</time>
      </trkpt>
      <trkpt lat="37.275557" lon="-3.284913">
        <ele>998.177</ele>
        <time>2018-10-29T13:24:51Z</time>
      </trkpt>
      <trkpt lat="37.275631" lon="-3.284834">
        <ele>996.897</ele>
        <time>2018-10-29T13:25:09Z</time>
      </trkpt>
      <trkpt lat="37.275731" lon="-3.284996">
        <ele>1000.645</ele>
        <time>2018-10-29T13:33:08Z</time>
      </trkpt>
      <trkpt lat="37.276194" lon="-3.284690">
        <ele>995.638</ele>
        <time>2018-10-29T13:33:44Z</time>
      </trkpt>
      <trkpt lat="37.276117" lon="-3.284875">
        <ele>998.849</ele>
        <time>2018-10-29T13:34:48Z</time>
      </trkpt>
      <trkpt lat="37.276271" lon="-3.284730">
        <ele>996.299</ele>
        <time>2018-10-29T13:35:03Z</time>
      </trkpt>
      <trkpt lat="37.276343" lon="-3.284920">
        <ele>1000.243</ele>
        <time>2018-10-29T13:35:29Z</time>
      </trkpt>
      <trkpt lat="37.276339" lon="-3.284676">
        <ele>995.419</ele>
        <time>2018-10-29T13:35:36Z</time>
      </trkpt>
      <trkpt lat="37.276534" lon="-3.284765">
        <ele>996.009</ele>
        <time>2018-10-29T13:35:48Z</time>
      </trkpt>
      <trkpt lat="37.276246" lon="-3.284560">
        <ele>994.019</ele>
        <time>2018-10-29T13:36:44Z</time>
      </trkpt>
      <trkpt lat="37.276378" lon="-3.284790">
        <ele>997.508</ele>
        <time>2018-10-29T13:36:45Z</time>
      </trkpt>
      <trkpt lat="37.276350" lon="-3.284560">
        <ele>993.714</ele>
        <time>2018-10-29T13:36:57Z</time>
      </trkpt>
      <trkpt lat="37.276863" lon="-3.284444">
        <ele>988.331</ele>
        <time>2018-10-29T13:37:35Z</time>
      </trkpt>
      <trkpt lat="37.276978" lon="-3.284682">
        <ele>990.071</ele>
        <time>2018-10-29T13:38:03Z</time>
      </trkpt>
      <trkpt lat="37.276937" lon="-3.284420">
        <ele>987.849</ele>
        <time>2018-10-29T13:38:20Z</time>
      </trkpt>
      <trkpt lat="37.277518" lon="-3.284320">
        <ele>979.392</ele>
        <time>2018-10-29T13:40:30Z</time>
      </trkpt>
      <trkpt lat="37.277546" lon="-3.284144">
        <ele>979.833</ele>
        <time>2018-10-29T13:40:43Z</time>
      </trkpt>
      <trkpt lat="37.277219" lon="-3.283697">
        <ele>980.673</ele>
        <time>2018-10-29T13:41:41Z</time>
      </trkpt>
      <trkpt lat="37.277218" lon="-3.283771">
        <ele>981.298</ele>
        <time>2018-10-30T07:22:49Z</time>
      </trkpt>
      <trkpt lat="37.277615" lon="-3.284202">
        <ele>979.015</ele>
        <time>2018-10-30T08:04:28Z</time>
      </trkpt>
      <trkpt lat="37.277297" lon="-3.284411">
        <ele>982.626</ele>
        <time>2018-10-30T08:05:02Z</time>
      </trkpt>
      <trkpt lat="37.276649" lon="-3.284412">
        <ele>988.808</ele>
        <time>2018-10-30T08:05:44Z</time>
      </trkpt>
      <trkpt lat="37.276280" lon="-3.284699">
        <ele>995.792</ele>
        <time>2018-10-30T08:06:19Z</time>
      </trkpt>
      <trkpt lat="37.276123" lon="-3.284517">
        <ele>993.839</ele>
        <time>2018-10-30T08:06:57Z</time>
      </trkpt>
      <trkpt lat="37.276139" lon="-3.284742">
        <ele>996.469</ele>
        <time>2018-10-30T08:07:32Z</time>
      </trkpt>
      <trkpt lat="37.275794" lon="-3.285046">
        <ele>1001.717</ele>
        <time>2018-10-30T08:08:10Z</time>
      </trkpt>
      <trkpt lat="37.275902" lon="-3.285382">
        <ele>1009.179</ele>
        <time>2018-10-30T08:08:35Z</time>
      </trkpt>
      <trkpt lat="37.275835" lon="-3.286190">
        <ele>1024.139</ele>
        <time>2018-10-30T08:09:46Z</time>
      </trkpt>
      <trkpt lat="37.275993" lon="-3.286566">
        <ele>1029.779</ele>
        <time>2018-10-30T08:10:25Z</time>
      </trkpt>
      <trkpt lat="37.276412" lon="-3.286888">
        <ele>1033.276</ele>
        <time>2018-10-30T08:11:28Z</time>
      </trkpt>
      <trkpt lat="37.276236" lon="-3.286971">
        <ele>1035.288</ele>
        <time>2018-10-30T08:11:48Z</time>
      </trkpt>
      <trkpt lat="37.275910" lon="-3.286797">
        <ele>1035.224</ele>
        <time>2018-10-30T08:12:22Z</time>
      </trkpt>
      <trkpt lat="37.276351" lon="-3.287375">
        <ele>1040.526</ele>
        <time>2018-10-30T08:13:13Z</time>
      </trkpt>
      <trkpt lat="37.275708" lon="-3.287004">
        <ele>1043.608</ele>
        <time>2018-10-30T08:14:12Z</time>
      </trkpt>
      <trkpt lat="37.275310" lon="-3.287059">
        <ele>1046.911</ele>
        <time>2018-10-30T08:14:54Z</time>
      </trkpt>
      <trkpt lat="37.275021" lon="-3.287325">
        <ele>1051.348</ele>
        <time>2018-10-30T08:15:19Z</time>
      </trkpt>
      <trkpt lat="37.274413" lon="-3.287405">
        <ele>1047.738</ele>
        <time>2018-10-30T08:16:06Z</time>
      </trkpt>
      <trkpt lat="37.274449" lon="-3.287987">
        <ele>1052.526</ele>
        <time>2018-10-30T08:16:40Z</time>
      </trkpt>
      <trkpt lat="37.274685" lon="-3.288360">
        <ele>1059.278</ele>
        <time>2018-10-30T08:17:09Z</time>
      </trkpt>
      <trkpt lat="37.275041" lon="-3.288469">
        <ele>1067.178</ele>
        <time>2018-10-30T08:17:35Z</time>
      </trkpt>
      <trkpt lat="37.275438" lon="-3.289153">
        <ele>1066.898</ele>
        <time>2018-10-30T08:18:22Z</time>
      </trkpt>
      <trkpt lat="37.275152" lon="-3.291389">
        <ele>1077.095</ele>
        <time>2018-10-30T08:20:32Z</time>
      </trkpt>
      <trkpt lat="37.274043" lon="-3.293578">
        <ele>1101.984</ele>
        <time>2018-10-30T08:23:16Z</time>
      </trkpt>
      <trkpt lat="37.273495" lon="-3.295846">
        <ele>1125.007</ele>
        <time>2018-10-30T08:25:39Z</time>
      </trkpt>
      <trkpt lat="37.273186" lon="-3.296366">
        <ele>1121.317</ele>
        <time>2018-10-30T08:26:20Z</time>
      </trkpt>
      <trkpt lat="37.273008" lon="-3.297542">
        <ele>1128.008</ele>
        <time>2018-10-30T08:27:29Z</time>
      </trkpt>
      <trkpt lat="37.272650" lon="-3.298189">
        <ele>1132.851</ele>
        <time>2018-10-30T08:28:12Z</time>
      </trkpt>
      <trkpt lat="37.271893" lon="-3.300474">
        <ele>1126.768</ele>
        <time>2018-10-30T08:30:26Z</time>
      </trkpt>
      <trkpt lat="37.270655" lon="-3.302154">
        <ele>1134.498</ele>
        <time>2018-10-30T08:32:31Z</time>
      </trkpt>
      <trkpt lat="37.270181" lon="-3.302080">
        <ele>1138.336</ele>
        <time>2018-10-30T08:33:19Z</time>
      </trkpt>
      <trkpt lat="37.269739" lon="-3.302249">
        <ele>1141.548</ele>
        <time>2018-10-30T08:33:53Z</time>
      </trkpt>
      <trkpt lat="37.269085" lon="-3.303157">
        <ele>1151.828</ele>
        <time>2018-10-30T08:35:17Z</time>
      </trkpt>
      <trkpt lat="37.269305" lon="-3.303463">
        <ele>1156.218</ele>
        <time>2018-10-30T08:35:51Z</time>
      </trkpt>
      <trkpt lat="37.268101" lon="-3.308581">
        <ele>1183.875</ele>
        <time>2018-10-30T08:41:56Z</time>
      </trkpt>
      <trkpt lat="37.267861" lon="-3.308904">
        <ele>1187.153</ele>
        <time>2018-10-30T08:42:17Z</time>
      </trkpt>
      <trkpt lat="37.267283" lon="-3.309196">
        <ele>1191.804</ele>
        <time>2018-10-30T08:43:05Z</time>
      </trkpt>
      <trkpt lat="37.266910" lon="-3.310140">
        <ele>1198.914</ele>
        <time>2018-10-30T08:44:09Z</time>
      </trkpt>
      <trkpt lat="37.267075" lon="-3.311214">
        <ele>1201.608</ele>
        <time>2018-10-30T08:45:15Z</time>
      </trkpt>
      <trkpt lat="37.267002" lon="-3.312139">
        <ele>1208.828</ele>
        <time>2018-10-30T08:46:09Z</time>
      </trkpt>
      <trkpt lat="37.266254" lon="-3.312887">
        <ele>1213.385</ele>
        <time>2018-10-30T08:47:17Z</time>
      </trkpt>
      <trkpt lat="37.264694" lon="-3.312702">
        <ele>1226.665</ele>
        <time>2018-10-30T08:49:11Z</time>
      </trkpt>
      <trkpt lat="37.264332" lon="-3.312995">
        <ele>1231.783</ele>
        <time>2018-10-30T08:49:48Z</time>
      </trkpt>
      <trkpt lat="37.263858" lon="-3.313119">
        <ele>1234.235</ele>
        <time>2018-10-30T08:50:32Z</time>
      </trkpt>
      <trkpt lat="37.263605" lon="-3.313428">
        <ele>1242.145</ele>
        <time>2018-10-30T08:51:05Z</time>
      </trkpt>
      <trkpt lat="37.263606" lon="-3.316612">
        <ele>1275.895</ele>
        <time>2018-10-30T08:54:47Z</time>
      </trkpt>
      <trkpt lat="37.263371" lon="-3.317587">
        <ele>1276.922</ele>
        <time>2018-10-30T08:55:54Z</time>
      </trkpt>
      <trkpt lat="37.262770" lon="-3.318818">
        <ele>1278.897</ele>
        <time>2018-10-30T08:57:13Z</time>
      </trkpt>
      <trkpt lat="37.264104" lon="-3.320122">
        <ele>1288.823</ele>
        <time>2018-10-30T08:59:28Z</time>
      </trkpt>
      <trkpt lat="37.263926" lon="-3.321394">
        <ele>1285.125</ele>
        <time>2018-10-30T09:00:42Z</time>
      </trkpt>
      <trkpt lat="37.263637" lon="-3.322013">
        <ele>1284.308</ele>
        <time>2018-10-30T09:01:23Z</time>
      </trkpt>
      <trkpt lat="37.263913" lon="-3.323110">
        <ele>1293.032</ele>
        <time>2018-10-30T09:02:34Z</time>
      </trkpt>
      <trkpt lat="37.264309" lon="-3.323556">
        <ele>1299.199</ele>
        <time>2018-10-30T09:03:18Z</time>
      </trkpt>
      <trkpt lat="37.264757" lon="-3.323578">
        <ele>1299.369</ele>
        <time>2018-10-30T09:04:26Z</time>
      </trkpt>
      <trkpt lat="37.265125" lon="-3.323819">
        <ele>1295.247</ele>
        <time>2018-10-30T09:04:58Z</time>
      </trkpt>
      <trkpt lat="37.265866" lon="-3.324949">
        <ele>1300.019</ele>
        <time>2018-10-30T09:06:20Z</time>
      </trkpt>
      <trkpt lat="37.266557" lon="-3.328486">
        <ele>1294.449</ele>
        <time>2018-10-30T09:09:27Z</time>
      </trkpt>
      <trkpt lat="37.266386" lon="-3.329748">
        <ele>1300.579</ele>
        <time>2018-10-30T09:10:36Z</time>
      </trkpt>
      <trkpt lat="37.266278" lon="-3.329613">
        <ele>1306.246</ele>
        <time>2018-10-30T09:10:38Z</time>
      </trkpt>
      <trkpt lat="37.265853" lon="-3.330059">
        <ele>1306.589</ele>
        <time>2018-10-30T09:11:14Z</time>
      </trkpt>
      <trkpt lat="37.264715" lon="-3.330403">
        <ele>1312.206</ele>
        <time>2018-10-30T09:12:34Z</time>
      </trkpt>
      <trkpt lat="37.265764" lon="-3.332260">
        <ele>1300.726</ele>
        <time>2018-10-30T09:14:33Z</time>
      </trkpt>
      <trkpt lat="37.265741" lon="-3.333260">
        <ele>1297.208</ele>
        <time>2018-10-30T09:15:31Z</time>
      </trkpt>
      <trkpt lat="37.265305" lon="-3.334245">
        <ele>1291.361</ele>
        <time>2018-10-30T09:16:30Z</time>
      </trkpt>
      <trkpt lat="37.264391" lon="-3.335180">
        <ele>1294.588</ele>
        <time>2018-10-30T09:17:48Z</time>
      </trkpt>
      <trkpt lat="37.264056" lon="-3.336672">
        <ele>1280.028</ele>
        <time>2018-10-30T09:19:07Z</time>
      </trkpt>
      <trkpt lat="37.263397" lon="-3.338066">
        <ele>1278.316</ele>
        <time>2018-10-30T09:20:46Z</time>
      </trkpt>
      <trkpt lat="37.263014" lon="-3.339327">
        <ele>1264.638</ele>
        <time>2018-10-30T09:22:00Z</time>
      </trkpt>
      <trkpt lat="37.262172" lon="-3.340742">
        <ele>1250.368</ele>
        <time>2018-10-30T09:23:33Z</time>
      </trkpt>
      <trkpt lat="37.260224" lon="-3.341917">
        <ele>1247.548</ele>
        <time>2018-10-30T09:26:02Z</time>
      </trkpt>
      <trkpt lat="37.260360" lon="-3.342317">
        <ele>1242.635</ele>
        <time>2018-10-30T09:26:22Z</time>
      </trkpt>
      <trkpt lat="37.260952" lon="-3.342604">
        <ele>1221.492</ele>
        <time>2018-10-30T09:27:07Z</time>
      </trkpt>
      <trkpt lat="37.261645" lon="-3.342453">
        <ele>1208.973</ele>
        <time>2018-10-30T09:27:57Z</time>
      </trkpt>
      <trkpt lat="37.261784" lon="-3.343006">
        <ele>1224.820</ele>
        <time>2018-10-30T09:28:34Z</time>
      </trkpt>
      <trkpt lat="37.262893" lon="-3.342370">
        <ele>1201.008</ele>
        <time>2018-10-30T09:29:56Z</time>
      </trkpt>
      <trkpt lat="37.263245" lon="-3.342303">
        <ele>1196.522</ele>
        <time>2018-10-30T09:30:19Z</time>
      </trkpt>
      <trkpt lat="37.263881" lon="-3.342895">
        <ele>1209.259</ele>
        <time>2018-10-30T09:42:26Z</time>
      </trkpt>
      <trkpt lat="37.263876" lon="-3.342766">
        <ele>1210.729</ele>
        <time>2018-10-30T09:42:50Z</time>
      </trkpt>
      <trkpt lat="37.264089" lon="-3.343739">
        <ele>1206.127</ele>
        <time>2018-10-30T09:43:59Z</time>
      </trkpt>
      <trkpt lat="37.265150" lon="-3.345030">
        <ele>1211.329</ele>
        <time>2018-10-30T09:45:39Z</time>
      </trkpt>
      <trkpt lat="37.265208" lon="-3.345799">
        <ele>1210.339</ele>
        <time>2018-10-30T09:46:22Z</time>
      </trkpt>
      <trkpt lat="37.264793" lon="-3.349007">
        <ele>1220.799</ele>
        <time>2018-10-30T09:49:03Z</time>
      </trkpt>
      <trkpt lat="37.264122" lon="-3.350769">
        <ele>1216.056</ele>
        <time>2018-10-30T09:50:55Z</time>
      </trkpt>
      <trkpt lat="37.263335" lon="-3.351685">
        <ele>1218.156</ele>
        <time>2018-10-30T09:52:11Z</time>
      </trkpt>
      <trkpt lat="37.262511" lon="-3.353008">
        <ele>1220.159</ele>
        <time>2018-10-30T09:53:45Z</time>
      </trkpt>
      <trkpt lat="37.262230" lon="-3.354941">
        <ele>1223.114</ele>
        <time>2018-10-30T09:55:28Z</time>
      </trkpt>
      <trkpt lat="37.260659" lon="-3.358380">
        <ele>1231.008</ele>
        <time>2018-10-30T09:59:07Z</time>
      </trkpt>
      <trkpt lat="37.259783" lon="-3.359536">
        <ele>1232.848</ele>
        <time>2018-10-30T10:00:37Z</time>
      </trkpt>
      <trkpt lat="37.258117" lon="-3.360655">
        <ele>1239.355</ele>
        <time>2018-10-30T10:02:48Z</time>
      </trkpt>
      <trkpt lat="37.257788" lon="-3.361272">
        <ele>1237.545</ele>
        <time>2018-10-30T10:03:26Z</time>
      </trkpt>
      <trkpt lat="37.257420" lon="-3.361575">
        <ele>1238.633</ele>
        <time>2018-10-30T10:04:59Z</time>
      </trkpt>
      <trkpt lat="37.255591" lon="-3.363946">
        <ele>1251.615</ele>
        <time>2018-10-30T10:08:04Z</time>
      </trkpt>
      <trkpt lat="37.255463" lon="-3.364591">
        <ele>1251.535</ele>
        <time>2018-10-30T10:08:42Z</time>
      </trkpt>
      <trkpt lat="37.254054" lon="-3.367895">
        <ele>1261.625</ele>
        <time>2018-10-30T10:12:14Z</time>
      </trkpt>
      <trkpt lat="37.253620" lon="-3.369311">
        <ele>1266.142</ele>
        <time>2018-10-30T10:13:43Z</time>
      </trkpt>
      <trkpt lat="37.253284" lon="-3.371176">
        <ele>1272.854</ele>
        <time>2018-10-30T10:15:41Z</time>
      </trkpt>
      <trkpt lat="37.253328" lon="-3.373249">
        <ele>1272.356</ele>
        <time>2018-10-30T10:17:38Z</time>
      </trkpt>
      <trkpt lat="37.252845" lon="-3.374333">
        <ele>1285.011</ele>
        <time>2018-10-30T10:18:56Z</time>
      </trkpt>
      <trkpt lat="37.252465" lon="-3.374758">
        <ele>1293.408</ele>
        <time>2018-10-30T10:19:41Z</time>
      </trkpt>
      <trkpt lat="37.250648" lon="-3.375233">
        <ele>1297.518</ele>
        <time>2018-10-30T10:22:23Z</time>
      </trkpt>
      <trkpt lat="37.250297" lon="-3.375479">
        <ele>1297.875</ele>
        <time>2018-10-30T10:23:07Z</time>
      </trkpt>
      <trkpt lat="37.249753" lon="-3.376307">
        <ele>1298.115</ele>
        <time>2018-10-30T10:24:17Z</time>
      </trkpt>
      <trkpt lat="37.249998" lon="-3.377794">
        <ele>1304.963</ele>
        <time>2018-10-30T10:26:09Z</time>
      </trkpt>
      <trkpt lat="37.249839" lon="-3.382598">
        <ele>1290.965</ele>
        <time>2018-10-30T10:31:02Z</time>
      </trkpt>
      <trkpt lat="37.249241" lon="-3.383357">
        <ele>1296.395</ele>
        <time>2018-10-30T10:32:11Z</time>
      </trkpt>
      <trkpt lat="37.248987" lon="-3.384499">
        <ele>1291.455</ele>
        <time>2018-10-30T10:33:15Z</time>
      </trkpt>
      <trkpt lat="37.249090" lon="-3.385311">
        <ele>1290.272</ele>
        <time>2018-10-30T10:34:01Z</time>
      </trkpt>
      <trkpt lat="37.248704" lon="-3.385973">
        <ele>1290.786</ele>
        <time>2018-10-30T10:34:49Z</time>
      </trkpt>
      <trkpt lat="37.248852" lon="-3.387267">
        <ele>1291.760</ele>
        <time>2018-10-30T10:36:03Z</time>
      </trkpt>
      <trkpt lat="37.248551" lon="-3.387348">
        <ele>1293.826</ele>
        <time>2018-10-30T10:36:27Z</time>
      </trkpt>
      <trkpt lat="37.247976" lon="-3.386587">
        <ele>1293.808</ele>
        <time>2018-10-30T10:37:24Z</time>
      </trkpt>
      <trkpt lat="37.247516" lon="-3.386512">
        <ele>1295.711</ele>
        <time>2018-10-30T10:37:59Z</time>
      </trkpt>
      <trkpt lat="37.246971" lon="-3.386742">
        <ele>1295.558</ele>
        <time>2018-10-30T10:38:43Z</time>
      </trkpt>
      <trkpt lat="37.246622" lon="-3.387338">
        <ele>1302.048</ele>
        <time>2018-10-30T10:39:28Z</time>
      </trkpt>
      <trkpt lat="37.245996" lon="-3.387489">
        <ele>1303.286</ele>
        <time>2018-10-30T10:40:14Z</time>
      </trkpt>
      <trkpt lat="37.245758" lon="-3.387904">
        <ele>1304.038</ele>
        <time>2018-10-30T10:40:42Z</time>
      </trkpt>
      <trkpt lat="37.245802" lon="-3.389405">
        <ele>1289.578</ele>
        <time>2018-10-30T10:42:26Z</time>
      </trkpt>
      <trkpt lat="37.245974" lon="-3.390289">
        <ele>1283.388</ele>
        <time>2018-10-30T10:43:18Z</time>
      </trkpt>
      <trkpt lat="37.246231" lon="-3.390547">
        <ele>1281.025</ele>
        <time>2018-10-30T10:43:41Z</time>
      </trkpt>
      <trkpt lat="37.246770" lon="-3.390587">
        <ele>1283.739</ele>
        <time>2018-10-30T10:44:20Z</time>
      </trkpt>
      <trkpt lat="37.247070" lon="-3.390808">
        <ele>1280.101</ele>
        <time>2018-10-30T10:44:50Z</time>
      </trkpt>
      <trkpt lat="37.246811" lon="-3.390709">
        <ele>1281.221</ele>
        <time>2018-10-30T10:45:19Z</time>
      </trkpt>
      <trkpt lat="37.246502" lon="-3.391172">
        <ele>1273.108</ele>
        <time>2018-10-30T10:46:07Z</time>
      </trkpt>
      <trkpt lat="37.246296" lon="-3.391332">
        <ele>1273.916</ele>
        <time>2018-10-30T10:46:48Z</time>
      </trkpt>
      <trkpt lat="37.246087" lon="-3.391291">
        <ele>1274.333</ele>
        <time>2018-10-30T10:47:03Z</time>
      </trkpt>
      <trkpt lat="37.245270" lon="-3.390672">
        <ele>1271.793</ele>
        <time>2018-10-30T10:48:08Z</time>
      </trkpt>
      <trkpt lat="37.244709" lon="-3.389937">
        <ele>1263.361</ele>
        <time>2018-10-30T10:49:03Z</time>
      </trkpt>
      <trkpt lat="37.244113" lon="-3.390015">
        <ele>1275.853</ele>
        <time>2018-10-30T10:49:49Z</time>
      </trkpt>
      <trkpt lat="37.243501" lon="-3.389228">
        <ele>1277.873</ele>
        <time>2018-10-30T10:50:50Z</time>
      </trkpt>
      <trkpt lat="37.242202" lon="-3.388582">
        <ele>1274.023</ele>
        <time>2018-10-30T10:52:24Z</time>
      </trkpt>
      <trkpt lat="37.241375" lon="-3.388744">
        <ele>1274.190</ele>
        <time>2018-10-30T10:53:24Z</time>
      </trkpt>
      <trkpt lat="37.240778" lon="-3.389113">
        <ele>1273.644</ele>
        <time>2018-10-30T10:54:08Z</time>
      </trkpt>
      <trkpt lat="37.239976" lon="-3.390228">
        <ele>1275.305</ele>
        <time>2018-10-30T10:55:30Z</time>
      </trkpt>
      <trkpt lat="37.239486" lon="-3.391428">
        <ele>1275.815</ele>
        <time>2018-10-30T10:56:45Z</time>
      </trkpt>
      <trkpt lat="37.239227" lon="-3.392740">
        <ele>1279.908</ele>
        <time>2018-10-30T10:58:22Z</time>
      </trkpt>
      <trkpt lat="37.238858" lon="-3.393530">
        <ele>1283.637</ele>
        <time>2018-10-30T10:59:16Z</time>
      </trkpt>
      <trkpt lat="37.238418" lon="-3.396335">
        <ele>1284.724</ele>
        <time>2018-10-30T11:01:57Z</time>
      </trkpt>
      <trkpt lat="37.237501" lon="-3.396850">
        <ele>1285.624</ele>
        <time>2018-10-30T11:03:05Z</time>
      </trkpt>
      <trkpt lat="37.236483" lon="-3.397723">
        <ele>1291.122</ele>
        <time>2018-10-30T11:04:34Z</time>
      </trkpt>
      <trkpt lat="37.234887" lon="-3.399910">
        <ele>1269.164</ele>
        <time>2018-10-30T11:07:19Z</time>
      </trkpt>
      <trkpt lat="37.233889" lon="-3.400366">
        <ele>1263.584</ele>
        <time>2018-10-30T11:08:31Z</time>
      </trkpt>
      <trkpt lat="37.233430" lon="-3.400852">
        <ele>1252.014</ele>
        <time>2018-10-30T11:09:12Z</time>
      </trkpt>
      <trkpt lat="37.232636" lon="-3.401092">
        <ele>1255.131</ele>
        <time>2018-10-30T11:10:07Z</time>
      </trkpt>
      <trkpt lat="37.232178" lon="-3.402404">
        <ele>1240.969</ele>
        <time>2018-10-30T11:11:25Z</time>
      </trkpt>
      <trkpt lat="37.231212" lon="-3.403063">
        <ele>1246.704</ele>
        <time>2018-10-30T11:12:41Z</time>
      </trkpt>
      <trkpt lat="37.230876" lon="-3.403804">
        <ele>1239.124</ele>
        <time>2018-10-30T11:13:27Z</time>
      </trkpt>
      <trkpt lat="37.230801" lon="-3.404448">
        <ele>1235.408</ele>
        <time>2018-10-30T11:14:04Z</time>
      </trkpt>
      <trkpt lat="37.231016" lon="-3.404641">
        <ele>1224.049</ele>
        <time>2018-10-30T11:14:22Z</time>
      </trkpt>
      <trkpt lat="37.231481" lon="-3.403297">
        <ele>1227.246</ele>
        <time>2018-10-30T11:15:45Z</time>
      </trkpt>
      <trkpt lat="37.232325" lon="-3.403150">
        <ele>1209.386</ele>
        <time>2018-10-30T11:16:44Z</time>
      </trkpt>
      <trkpt lat="37.232989" lon="-3.402385">
        <ele>1207.614</ele>
        <time>2018-10-30T11:17:45Z</time>
      </trkpt>
      <trkpt lat="37.233709" lon="-3.402494">
        <ele>1204.596</ele>
        <time>2018-10-30T11:18:34Z</time>
      </trkpt>
      <trkpt lat="37.234266" lon="-3.403048">
        <ele>1206.616</ele>
        <time>2018-10-30T11:19:23Z</time>
      </trkpt>
      <trkpt lat="37.234290" lon="-3.404241">
        <ele>1187.126</ele>
        <time>2018-10-30T11:20:30Z</time>
      </trkpt>
      <trkpt lat="37.234779" lon="-3.404268">
        <ele>1194.833</ele>
        <time>2018-10-30T11:21:14Z</time>
      </trkpt>
      <trkpt lat="37.235446" lon="-3.404661">
        <ele>1186.855</ele>
        <time>2018-10-30T11:22:13Z</time>
      </trkpt>
      <trkpt lat="37.236230" lon="-3.404766">
        <ele>1187.707</ele>
        <time>2018-10-30T11:23:19Z</time>
      </trkpt>
      <trkpt lat="37.236382" lon="-3.405089">
        <ele>1186.617</ele>
        <time>2018-10-30T11:23:43Z</time>
      </trkpt>
      <trkpt lat="37.236344" lon="-3.405540">
        <ele>1186.508</ele>
        <time>2018-10-30T11:24:23Z</time>
      </trkpt>
      <trkpt lat="37.236170" lon="-3.405541">
        <ele>1184.648</ele>
        <time>2018-10-30T11:44:50Z</time>
      </trkpt>
      <trkpt lat="37.236249" lon="-3.405770">
        <ele>1188.695</ele>
        <time>2018-10-30T11:45:34Z</time>
      </trkpt>
      <trkpt lat="37.235080" lon="-3.406638">
        <ele>1180.885</ele>
        <time>2018-10-30T11:47:16Z</time>
      </trkpt>
      <trkpt lat="37.234260" lon="-3.406860">
        <ele>1179.523</ele>
        <time>2018-10-30T11:48:22Z</time>
      </trkpt>
      <trkpt lat="37.233186" lon="-3.407884">
        <ele>1183.085</ele>
        <time>2018-10-30T11:50:04Z</time>
      </trkpt>
      <trkpt lat="37.233769" lon="-3.409482">
        <ele>1199.095</ele>
        <time>2018-10-30T11:51:57Z</time>
      </trkpt>
      <trkpt lat="37.233644" lon="-3.411088">
        <ele>1209.245</ele>
        <time>2018-10-30T11:53:36Z</time>
      </trkpt>
      <trkpt lat="37.233895" lon="-3.413398">
        <ele>1223.662</ele>
        <time>2018-10-30T11:56:00Z</time>
      </trkpt>
      <trkpt lat="37.233916" lon="-3.415193">
        <ele>1235.986</ele>
        <time>2018-10-30T11:57:57Z</time>
      </trkpt>
      <trkpt lat="37.233478" lon="-3.416377">
        <ele>1242.960</ele>
        <time>2018-10-30T11:59:27Z</time>
      </trkpt>
      <trkpt lat="37.233837" lon="-3.417131">
        <ele>1253.926</ele>
        <time>2018-10-30T12:00:26Z</time>
      </trkpt>
      <trkpt lat="37.234078" lon="-3.419634">
        <ele>1269.808</ele>
        <time>2018-10-30T12:03:19Z</time>
      </trkpt>
      <trkpt lat="37.234253" lon="-3.420133">
        <ele>1271.251</ele>
        <time>2018-10-30T12:03:48Z</time>
      </trkpt>
      <trkpt lat="37.234616" lon="-3.420391">
        <ele>1272.448</ele>
        <time>2018-10-30T12:04:26Z</time>
      </trkpt>
      <trkpt lat="37.234867" lon="-3.420862">
        <ele>1275.868</ele>
        <time>2018-10-30T12:05:02Z</time>
      </trkpt>
      <trkpt lat="37.235164" lon="-3.421836">
        <ele>1281.536</ele>
        <time>2018-10-30T12:06:09Z</time>
      </trkpt>
      <trkpt lat="37.235322" lon="-3.423026">
        <ele>1295.238</ele>
        <time>2018-10-30T12:07:30Z</time>
      </trkpt>
      <trkpt lat="37.236030" lon="-3.423758">
        <ele>1297.828</ele>
        <time>2018-10-30T12:08:45Z</time>
      </trkpt>
      <trkpt lat="37.237158" lon="-3.424368">
        <ele>1317.848</ele>
        <time>2018-10-30T12:10:29Z</time>
      </trkpt>
      <trkpt lat="37.236760" lon="-3.425279">
        <ele>1320.425</ele>
        <time>2018-10-30T12:11:54Z</time>
      </trkpt>
      <trkpt lat="37.236771" lon="-3.426122">
        <ele>1321.626</ele>
        <time>2018-10-30T12:12:46Z</time>
      </trkpt>
      <trkpt lat="37.236983" lon="-3.426483">
        <ele>1324.347</ele>
        <time>2018-10-30T12:13:15Z</time>
      </trkpt>
      <trkpt lat="37.237674" lon="-3.426836">
        <ele>1336.811</ele>
        <time>2018-10-30T12:14:16Z</time>
      </trkpt>
      <trkpt lat="37.237794" lon="-3.427170">
        <ele>1339.108</ele>
        <time>2018-10-30T12:14:38Z</time>
      </trkpt>
      <trkpt lat="37.237688" lon="-3.427923">
        <ele>1337.715</ele>
        <time>2018-10-30T12:15:29Z</time>
      </trkpt>
      <trkpt lat="37.237232" lon="-3.428739">
        <ele>1345.292</ele>
        <time>2018-10-30T12:16:37Z</time>
      </trkpt>
      <trkpt lat="37.237222" lon="-3.429501">
        <ele>1356.682</ele>
        <time>2018-10-30T12:17:25Z</time>
      </trkpt>
      <trkpt lat="37.236058" lon="-3.429534">
        <ele>1365.190</ele>
        <time>2018-10-30T12:19:02Z</time>
      </trkpt>
      <trkpt lat="37.234671" lon="-3.430518">
        <ele>1364.432</ele>
        <time>2018-10-30T12:21:17Z</time>
      </trkpt>
      <trkpt lat="37.234683" lon="-3.433044">
        <ele>1373.032</ele>
        <time>2018-10-30T12:23:43Z</time>
      </trkpt>
      <trkpt lat="37.234341" lon="-3.436325">
        <ele>1383.522</ele>
        <time>2018-10-30T12:26:58Z</time>
      </trkpt>
      <trkpt lat="37.233990" lon="-3.437905">
        <ele>1393.389</ele>
        <time>2018-10-30T12:28:42Z</time>
      </trkpt>
      <trkpt lat="37.234323" lon="-3.439892">
        <ele>1386.644</ele>
        <time>2018-10-30T12:31:15Z</time>
      </trkpt>
      <trkpt lat="37.234017" lon="-3.439880">
        <ele>1389.805</ele>
        <time>2018-10-30T12:31:50Z</time>
      </trkpt>
      <trkpt lat="37.232767" lon="-3.440315">
        <ele>1403.015</ele>
        <time>2018-10-30T12:33:39Z</time>
      </trkpt>
      <trkpt lat="37.232419" lon="-3.440809">
        <ele>1402.108</ele>
        <time>2018-10-30T12:34:34Z</time>
      </trkpt>
      <trkpt lat="37.231843" lon="-3.441260">
        <ele>1405.547</ele>
        <time>2018-10-30T12:35:53Z</time>
      </trkpt>
      <trkpt lat="37.231351" lon="-3.442437">
        <ele>1409.254</ele>
        <time>2018-10-30T12:37:20Z</time>
      </trkpt>
      <trkpt lat="37.231459" lon="-3.443211">
        <ele>1408.244</ele>
        <time>2018-10-30T12:38:20Z</time>
      </trkpt>
      <trkpt lat="37.231119" lon="-3.443915">
        <ele>1413.962</ele>
        <time>2018-10-30T12:39:17Z</time>
      </trkpt>
      <trkpt lat="37.231061" lon="-3.443561">
        <ele>1412.694</ele>
        <time>2018-10-30T12:40:50Z</time>
      </trkpt>
      <trkpt lat="37.230900" lon="-3.443684">
        <ele>1413.674</ele>
        <time>2018-10-30T12:41:09Z</time>
      </trkpt>
      <trkpt lat="37.230300" lon="-3.443568">
        <ele>1417.784</ele>
        <time>2018-10-30T12:41:58Z</time>
      </trkpt>
      <trkpt lat="37.229807" lon="-3.444203">
        <ele>1418.931</ele>
        <time>2018-10-30T12:43:01Z</time>
      </trkpt>
      <trkpt lat="37.228656" lon="-3.444534">
        <ele>1406.377</ele>
        <time>2018-10-30T12:44:54Z</time>
      </trkpt>
      <trkpt lat="37.228653" lon="-3.444912">
        <ele>1399.861</ele>
        <time>2018-10-30T12:45:20Z</time>
      </trkpt>
      <trkpt lat="37.228338" lon="-3.445373">
        <ele>1394.427</ele>
        <time>2018-10-30T12:46:02Z</time>
      </trkpt>
      <trkpt lat="37.227679" lon="-3.445220">
        <ele>1385.908</ele>
        <time>2018-10-30T12:47:02Z</time>
      </trkpt>
      <trkpt lat="37.226774" lon="-3.445426">
        <ele>1371.560</ele>
        <time>2018-10-30T12:48:23Z</time>
      </trkpt>
      <trkpt lat="37.225769" lon="-3.446434">
        <ele>1356.737</ele>
        <time>2018-10-30T12:50:08Z</time>
      </trkpt>
      <trkpt lat="37.225449" lon="-3.446593">
        <ele>1351.877</ele>
        <time>2018-10-30T12:50:37Z</time>
      </trkpt>
      <trkpt lat="37.225244" lon="-3.446460">
        <ele>1347.365</ele>
        <time>2018-10-30T12:50:59Z</time>
      </trkpt>
      <trkpt lat="37.225110" lon="-3.446536">
        <ele>1344.017</ele>
        <time>2018-10-30T12:51:09Z</time>
      </trkpt>
      <trkpt lat="37.224539" lon="-3.447474">
        <ele>1325.677</ele>
        <time>2018-10-30T12:53:00Z</time>
      </trkpt>
      <trkpt lat="37.223889" lon="-3.447842">
        <ele>1308.967</ele>
        <time>2018-10-30T12:53:49Z</time>
      </trkpt>
      <trkpt lat="37.223680" lon="-3.448211">
        <ele>1307.344</ele>
        <time>2018-10-30T12:54:15Z</time>
      </trkpt>
      <trkpt lat="37.223276" lon="-3.448301">
        <ele>1293.214</ele>
        <time>2018-10-30T12:54:45Z</time>
      </trkpt>
      <trkpt lat="37.222366" lon="-3.448836">
        <ele>1269.554</ele>
        <time>2018-10-30T12:56:02Z</time>
      </trkpt>
      <trkpt lat="37.220437" lon="-3.450670">
        <ele>1241.809</ele>
        <time>2018-10-30T12:58:41Z</time>
      </trkpt>
      <trkpt lat="37.220378" lon="-3.451246">
        <ele>1237.808</ele>
        <time>2018-10-30T12:59:13Z</time>
      </trkpt>
      <trkpt lat="37.219962" lon="-3.450576">
        <ele>1221.034</ele>
        <time>2018-10-30T13:00:04Z</time>
      </trkpt>
      <trkpt lat="37.219858" lon="-3.451067">
        <ele>1218.611</ele>
        <time>2018-10-30T13:00:33Z</time>
      </trkpt>
      <trkpt lat="37.219545" lon="-3.451415">
        <ele>1205.921</ele>
        <time>2018-10-30T13:01:20Z</time>
      </trkpt>
      <trkpt lat="37.219823" lon="-3.452501">
        <ele>1206.349</ele>
        <time>2018-10-30T13:02:17Z</time>
      </trkpt>
      <trkpt lat="37.219793" lon="-3.453294">
        <ele>1198.011</ele>
        <time>2018-10-30T13:02:58Z</time>
      </trkpt>
      <trkpt lat="37.219525" lon="-3.452569">
        <ele>1192.181</ele>
        <time>2018-10-30T13:03:45Z</time>
      </trkpt>
      <trkpt lat="37.218963" lon="-3.451931">
        <ele>1181.131</ele>
        <time>2018-10-30T13:04:39Z</time>
      </trkpt>
      <trkpt lat="37.218987" lon="-3.452426">
        <ele>1175.438</ele>
        <time>2018-10-30T13:05:11Z</time>
      </trkpt>
      <trkpt lat="37.218703" lon="-3.452730">
        <ele>1165.866</ele>
        <time>2018-10-30T13:05:34Z</time>
      </trkpt>
      <trkpt lat="37.218208" lon="-3.452927">
        <ele>1154.729</ele>
        <time>2018-10-30T13:06:04Z</time>
      </trkpt>
      <trkpt lat="37.217879" lon="-3.453321">
        <ele>1150.021</ele>
        <time>2018-10-30T13:06:39Z</time>
      </trkpt>
      <trkpt lat="37.216912" lon="-3.452395">
        <ele>1152.708</ele>
        <time>2018-10-30T13:08:04Z</time>
      </trkpt>
      <trkpt lat="37.214911" lon="-3.451502">
        <ele>1142.139</ele>
        <time>2018-10-30T13:10:33Z</time>
      </trkpt>
      <trkpt lat="37.214024" lon="-3.450853">
        <ele>1131.786</ele>
        <time>2018-10-30T13:11:42Z</time>
      </trkpt>
      <trkpt lat="37.211799" lon="-3.450953">
        <ele>1132.266</ele>
        <time>2018-10-30T13:14:21Z</time>
      </trkpt>
      <trkpt lat="37.210894" lon="-3.449662">
        <ele>1123.314</ele>
        <time>2018-10-30T13:15:56Z</time>
      </trkpt>
      <trkpt lat="37.209738" lon="-3.448924">
        <ele>1109.336</ele>
        <time>2018-10-30T13:17:29Z</time>
      </trkpt>
      <trkpt lat="37.209160" lon="-3.448868">
        <ele>1099.616</ele>
        <time>2018-10-30T13:18:08Z</time>
      </trkpt>
      <trkpt lat="37.208747" lon="-3.448992">
        <ele>1096.276</ele>
        <time>2018-10-30T13:18:38Z</time>
      </trkpt>
      <trkpt lat="37.207400" lon="-3.449851">
        <ele>1081.363</ele>
        <time>2018-10-30T13:20:30Z</time>
      </trkpt>
      <trkpt lat="37.206548" lon="-3.449882">
        <ele>1075.818</ele>
        <time>2018-10-30T13:21:32Z</time>
      </trkpt>
      <trkpt lat="37.206047" lon="-3.449714">
        <ele>1072.098</ele>
        <time>2018-10-30T13:22:14Z</time>
      </trkpt>
      <trkpt lat="37.205630" lon="-3.450039">
        <ele>1065.717</ele>
        <time>2018-10-30T13:22:54Z</time>
      </trkpt>
      <trkpt lat="37.205241" lon="-3.450083">
        <ele>1055.608</ele>
        <time>2018-10-30T13:23:23Z</time>
      </trkpt>
      <trkpt lat="37.204942" lon="-3.450382">
        <ele>1050.414</ele>
        <time>2018-10-30T13:23:50Z</time>
      </trkpt>
      <trkpt lat="37.204689" lon="-3.450371">
        <ele>1041.221</ele>
        <time>2018-10-30T13:24:11Z</time>
      </trkpt>
      <trkpt lat="37.204271" lon="-3.451467">
        <ele>1038.791</ele>
        <time>2018-10-30T13:25:18Z</time>
      </trkpt>
      <trkpt lat="37.203235" lon="-3.452783">
        <ele>1038.939</ele>
        <time>2018-10-30T13:27:05Z</time>
      </trkpt>
      <trkpt lat="37.202954" lon="-3.453437">
        <ele>1036.761</ele>
        <time>2018-10-30T13:27:48Z</time>
      </trkpt>
      <trkpt lat="37.202491" lon="-3.454059">
        <ele>1032.361</ele>
        <time>2018-10-30T13:28:40Z</time>
      </trkpt>
      <trkpt lat="37.202248" lon="-3.454182">
        <ele>1025.261</ele>
        <time>2018-10-30T13:28:56Z</time>
      </trkpt>
      <trkpt lat="37.202175" lon="-3.454430">
        <ele>1026.668</ele>
        <time>2018-10-30T13:29:12Z</time>
      </trkpt>
      <trkpt lat="37.201867" lon="-3.454501">
        <ele>1019.823</ele>
        <time>2018-10-30T13:29:33Z</time>
      </trkpt>
      <trkpt lat="37.201588" lon="-3.455142">
        <ele>1025.783</ele>
        <time>2018-10-30T13:30:11Z</time>
      </trkpt>
      <trkpt lat="37.201083" lon="-3.455749">
        <ele>1018.911</ele>
        <time>2018-10-30T13:31:02Z</time>
      </trkpt>
      <trkpt lat="37.200249" lon="-3.456235">
        <ele>1004.608</ele>
        <time>2018-10-30T13:32:07Z</time>
      </trkpt>
      <trkpt lat="37.200038" lon="-3.456657">
        <ele>1002.115</ele>
        <time>2018-10-30T13:32:38Z</time>
      </trkpt>
      <trkpt lat="37.199509" lon="-3.456989">
        <ele>990.252</ele>
        <time>2018-10-30T13:33:20Z</time>
      </trkpt>
      <trkpt lat="37.199145" lon="-3.457974">
        <ele>986.882</ele>
        <time>2018-10-30T13:34:22Z</time>
      </trkpt>
      <trkpt lat="37.198733" lon="-3.458234">
        <ele>987.120</ele>
        <time>2018-10-30T13:34:54Z</time>
      </trkpt>
      <trkpt lat="37.198333" lon="-3.458279">
        <ele>986.492</ele>
        <time>2018-10-30T13:35:24Z</time>
      </trkpt>
      <trkpt lat="37.197711" lon="-3.459272">
        <ele>980.932</ele>
        <time>2018-10-30T13:36:34Z</time>
      </trkpt>
      <trkpt lat="37.197003" lon="-3.460021">
        <ele>969.652</ele>
        <time>2018-10-30T13:37:38Z</time>
      </trkpt>
      <trkpt lat="37.196684" lon="-3.460113">
        <ele>962.219</ele>
        <time>2018-10-30T13:38:00Z</time>
      </trkpt>
      <trkpt lat="37.196338" lon="-3.459841">
        <ele>956.445</ele>
        <time>2018-10-30T13:38:34Z</time>
      </trkpt>
      <trkpt lat="37.196538" lon="-3.460302">
        <ele>957.647</ele>
        <time>2018-10-30T13:39:10Z</time>
      </trkpt>
      <trkpt lat="37.196084" lon="-3.461023">
        <ele>947.611</ele>
        <time>2018-10-30T13:40:10Z</time>
      </trkpt>
      <trkpt lat="37.195626" lon="-3.461376">
        <ele>934.508</ele>
        <time>2018-10-30T13:41:15Z</time>
      </trkpt>
      <trkpt lat="37.194856" lon="-3.462401">
        <ele>920.347</ele>
        <time>2018-10-30T13:43:17Z</time>
      </trkpt>
      <trkpt lat="37.194952" lon="-3.461981">
        <ele>920.724</ele>
        <time>2018-10-30T13:44:00Z</time>
      </trkpt>
      <trkpt lat="37.194356" lon="-3.463040">
        <ele>907.884</ele>
        <time>2018-10-30T13:45:36Z</time>
      </trkpt>
      <trkpt lat="37.194227" lon="-3.464002">
        <ele>889.182</ele>
        <time>2018-10-30T13:46:50Z</time>
      </trkpt>
      <trkpt lat="37.193989" lon="-3.463861">
        <ele>886.844</ele>
        <time>2018-10-30T13:47:23Z</time>
      </trkpt>
      <trkpt lat="37.193755" lon="-3.463333">
        <ele>887.764</ele>
        <time>2018-10-30T13:48:13Z</time>
      </trkpt>
      <trkpt lat="37.193744" lon="-3.463153">
        <ele>890.294</ele>
        <time>2018-10-30T13:48:27Z</time>
      </trkpt>
      <trkpt lat="37.193956" lon="-3.463056">
        <ele>897.791</ele>
        <time>2018-10-30T13:49:04Z</time>
      </trkpt>
      <trkpt lat="37.194067" lon="-3.462781">
        <ele>899.516</ele>
        <time>2018-10-30T13:53:28Z</time>
      </trkpt>
      <trkpt lat="37.192793" lon="-3.469920">
        <ele>895.322</ele>
        <time>2017-03-12T08:10:28Z</time>
      </trkpt>
      <trkpt lat="37.192206" lon="-3.468311">
        <ele>901.062</ele>
        <time>2017-03-12T08:11:18Z</time>
      </trkpt>
      <trkpt lat="37.192208" lon="-3.467935">
        <ele>901.408</ele>
        <time>2017-03-12T08:11:25Z</time>
      </trkpt>
      <trkpt lat="37.192925" lon="-3.470566">
        <ele>895.008</ele>
        <time>2017-03-12T08:24:05Z</time>
      </trkpt>
      <trkpt lat="37.193314" lon="-3.471096">
        <ele>884.923</ele>
        <time>2017-03-12T08:24:57Z</time>
      </trkpt>
      <trkpt lat="37.193294" lon="-3.471310">
        <ele>885.348</ele>
        <time>2017-03-12T08:25:22Z</time>
      </trkpt>
      <trkpt lat="37.192556" lon="-3.471205">
        <ele>879.769</ele>
        <time>2017-03-12T08:26:32Z</time>
      </trkpt>
      <trkpt lat="37.191052" lon="-3.472674">
        <ele>879.157</ele>
        <time>2017-03-12T08:29:32Z</time>
      </trkpt>
      <trkpt lat="37.190667" lon="-3.472611">
        <ele>873.270</ele>
        <time>2017-03-12T08:30:29Z</time>
      </trkpt>
      <trkpt lat="37.190443" lon="-3.472821">
        <ele>872.415</ele>
        <time>2017-03-12T08:30:56Z</time>
      </trkpt>
      <trkpt lat="37.189784" lon="-3.472733">
        <ele>872.922</ele>
        <time>2017-03-12T08:31:52Z</time>
      </trkpt>
      <trkpt lat="37.189052" lon="-3.473052">
        <ele>878.784</ele>
        <time>2017-03-12T08:32:57Z</time>
      </trkpt>
      <trkpt lat="37.188789" lon="-3.473537">
        <ele>879.297</ele>
        <time>2017-03-12T08:34:38Z</time>
      </trkpt>
      <trkpt lat="37.188810" lon="-3.473399">
        <ele>878.323</ele>
        <time>2017-03-12T08:34:49Z</time>
      </trkpt>
      <trkpt lat="37.188221" lon="-3.473817">
        <ele>883.825</ele>
        <time>2017-03-12T08:35:48Z</time>
      </trkpt>
      <trkpt lat="37.187909" lon="-3.474979">
        <ele>887.708</ele>
        <time>2017-03-12T08:37:08Z</time>
      </trkpt>
      <trkpt lat="37.187475" lon="-3.475227">
        <ele>891.180</ele>
        <time>2017-03-12T08:37:52Z</time>
      </trkpt>
      <trkpt lat="37.187048" lon="-3.476021">
        <ele>890.445</ele>
        <time>2017-03-12T08:39:05Z</time>
      </trkpt>
      <trkpt lat="37.187262" lon="-3.477233">
        <ele>884.476</ele>
        <time>2017-03-12T08:40:55Z</time>
      </trkpt>
      <trkpt lat="37.187615" lon="-3.477884">
        <ele>876.254</ele>
        <time>2017-03-12T08:41:59Z</time>
      </trkpt>
      <trkpt lat="37.187077" lon="-3.478522">
        <ele>869.687</ele>
        <time>2017-03-12T08:43:02Z</time>
      </trkpt>
      <trkpt lat="37.186581" lon="-3.479670">
        <ele>868.842</ele>
        <time>2017-03-12T08:44:30Z</time>
      </trkpt>
      <trkpt lat="37.186454" lon="-3.480502">
        <ele>866.879</ele>
        <time>2017-03-12T08:45:27Z</time>
      </trkpt>
      <trkpt lat="37.186053" lon="-3.480833">
        <ele>863.881</ele>
        <time>2017-03-12T08:46:24Z</time>
      </trkpt>
      <trkpt lat="37.185474" lon="-3.481807">
        <ele>865.986</ele>
        <time>2017-03-12T08:47:49Z</time>
      </trkpt>
      <trkpt lat="37.185899" lon="-3.482854">
        <ele>857.660</ele>
        <time>2017-03-12T08:49:06Z</time>
      </trkpt>
      <trkpt lat="37.186057" lon="-3.482968">
        <ele>858.626</ele>
        <time>2017-03-12T08:49:45Z</time>
      </trkpt>
      <trkpt lat="37.185884" lon="-3.483670">
        <ele>861.408</ele>
        <time>2017-03-12T08:50:46Z</time>
      </trkpt>
      <trkpt lat="37.186168" lon="-3.483815">
        <ele>867.249</ele>
        <time>2017-03-12T08:51:16Z</time>
      </trkpt>
      <trkpt lat="37.186398" lon="-3.484193">
        <ele>867.194</ele>
        <time>2017-03-12T08:51:44Z</time>
      </trkpt>
      <trkpt lat="37.186011" lon="-3.484963">
        <ele>868.925</ele>
        <time>2017-03-12T08:52:37Z</time>
      </trkpt>
      <trkpt lat="37.185960" lon="-3.485535">
        <ele>871.573</ele>
        <time>2017-03-12T08:53:30Z</time>
      </trkpt>
      <trkpt lat="37.185998" lon="-3.486149">
        <ele>869.926</ele>
        <time>2017-03-12T08:54:35Z</time>
      </trkpt>
      <trkpt lat="37.186292" lon="-3.486768">
        <ele>872.171</ele>
        <time>2017-03-12T08:55:28Z</time>
      </trkpt>
      <trkpt lat="37.186480" lon="-3.487898">
        <ele>893.588</ele>
        <time>2017-03-12T08:57:29Z</time>
      </trkpt>
      <trkpt lat="37.186547" lon="-3.487988">
        <ele>892.630</ele>
        <time>2017-03-12T08:57:40Z</time>
      </trkpt>
      <trkpt lat="37.186716" lon="-3.487872">
        <ele>892.472</ele>
        <time>2017-03-12T08:57:51Z</time>
      </trkpt>
      <trkpt lat="37.186595" lon="-3.486220">
        <ele>910.413</ele>
        <time>2017-03-12T08:59:54Z</time>
      </trkpt>
      <trkpt lat="37.186842" lon="-3.485903">
        <ele>913.614</ele>
        <time>2017-03-12T09:00:34Z</time>
      </trkpt>
      <trkpt lat="37.187453" lon="-3.488110">
        <ele>921.308</ele>
        <time>2017-03-12T09:03:54Z</time>
      </trkpt>
      <trkpt lat="37.187316" lon="-3.488527">
        <ele>935.458</ele>
        <time>2017-03-12T09:04:39Z</time>
      </trkpt>
      <trkpt lat="37.187416" lon="-3.489310">
        <ele>935.523</ele>
        <time>2017-03-12T09:06:21Z</time>
      </trkpt>
      <trkpt lat="37.187863" lon="-3.489731">
        <ele>941.184</ele>
        <time>2017-03-12T09:07:21Z</time>
      </trkpt>
      <trkpt lat="37.188309" lon="-3.490479">
        <ele>949.892</ele>
        <time>2017-03-12T09:08:43Z</time>
      </trkpt>
      <trkpt lat="37.188264" lon="-3.490938">
        <ele>956.365</ele>
        <time>2017-03-12T09:09:33Z</time>
      </trkpt>
      <trkpt lat="37.188765" lon="-3.492336">
        <ele>956.980</ele>
        <time>2017-03-12T09:13:16Z</time>
      </trkpt>
      <trkpt lat="37.190024" lon="-3.493357">
        <ele>979.567</ele>
        <time>2017-03-12T09:15:48Z</time>
      </trkpt>
      <trkpt lat="37.190126" lon="-3.494181">
        <ele>995.259</ele>
        <time>2017-03-12T09:17:13Z</time>
      </trkpt>
      <trkpt lat="37.190677" lon="-3.494903">
        <ele>1015.645</ele>
        <time>2017-03-12T09:19:27Z</time>
      </trkpt>
      <trkpt lat="37.190515" lon="-3.495936">
        <ele>1027.747</ele>
        <time>2017-03-12T09:20:56Z</time>
      </trkpt>
      <trkpt lat="37.190850" lon="-3.496121">
        <ele>1028.711</ele>
        <time>2017-03-12T09:21:31Z</time>
      </trkpt>
      <trkpt lat="37.191919" lon="-3.495783">
        <ele>1043.508</ele>
        <time>2017-03-12T09:23:09Z</time>
      </trkpt>
      <trkpt lat="37.192091" lon="-3.496152">
        <ele>1042.445</ele>
        <time>2017-03-12T09:23:58Z</time>
      </trkpt>
      <trkpt lat="37.191727" lon="-3.496302">
        <ele>1057.990</ele>
        <time>2017-03-12T09:25:00Z</time>
      </trkpt>
      <trkpt lat="37.190543" lon="-3.497875">
        <ele>1062.371</ele>
        <time>2017-03-12T09:27:42Z</time>
      </trkpt>
      <trkpt lat="37.189712" lon="-3.498166">
        <ele>1065.859</ele>
        <time>2017-03-12T09:28:47Z</time>
      </trkpt>
      <trkpt lat="37.189180" lon="-3.499143">
        <ele>1065.342</ele>
        <time>2017-03-12T09:30:00Z</time>
      </trkpt>
      <trkpt lat="37.188684" lon="-3.499575">
        <ele>1062.717</ele>
        <time>2017-03-12T09:30:43Z</time>
      </trkpt>
      <trkpt lat="37.188378" lon="-3.500671">
        <ele>1060.684</ele>
        <time>2017-03-12T09:32:19Z</time>
      </trkpt>
      <trkpt lat="37.188174" lon="-3.500913">
        <ele>1060.076</ele>
        <time>2017-03-12T09:34:04Z</time>
      </trkpt>
      <trkpt lat="37.188178" lon="-3.501505">
        <ele>1059.683</ele>
        <time>2017-03-12T09:34:56Z</time>
      </trkpt>
      <trkpt lat="37.187882" lon="-3.502404">
        <ele>1064.125</ele>
        <time>2017-03-12T09:36:01Z</time>
      </trkpt>
      <trkpt lat="37.186945" lon="-3.504316">
        <ele>1075.117</ele>
        <time>2017-03-12T09:38:27Z</time>
      </trkpt>
      <trkpt lat="37.186260" lon="-3.504958">
        <ele>1080.108</ele>
        <time>2017-03-12T09:39:36Z</time>
      </trkpt>
      <trkpt lat="37.186277" lon="-3.505633">
        <ele>1084.889</ele>
        <time>2017-03-12T09:40:58Z</time>
      </trkpt>
      <trkpt lat="37.185752" lon="-3.506451">
        <ele>1086.364</ele>
        <time>2017-03-12T09:42:12Z</time>
      </trkpt>
      <trkpt lat="37.185154" lon="-3.508389">
        <ele>1074.995</ele>
        <time>2017-03-12T09:44:17Z</time>
      </trkpt>
      <trkpt lat="37.184159" lon="-3.509404">
        <ele>1077.933</ele>
        <time>2017-03-12T09:45:54Z</time>
      </trkpt>
      <trkpt lat="37.183318" lon="-3.509466">
        <ele>1088.996</ele>
        <time>2017-03-12T09:47:06Z</time>
      </trkpt>
      <trkpt lat="37.183103" lon="-3.509878">
        <ele>1090.261</ele>
        <time>2017-03-12T09:47:35Z</time>
      </trkpt>
      <trkpt lat="37.182491" lon="-3.510437">
        <ele>1088.888</ele>
        <time>2017-03-12T09:48:33Z</time>
      </trkpt>
      <trkpt lat="37.182326" lon="-3.511206">
        <ele>1094.310</ele>
        <time>2017-03-12T09:49:56Z</time>
      </trkpt>
      <trkpt lat="37.182042" lon="-3.511649">
        <ele>1098.031</ele>
        <time>2017-03-12T09:50:35Z</time>
      </trkpt>
      <trkpt lat="37.182216" lon="-3.512711">
        <ele>1097.661</ele>
        <time>2017-03-12T09:51:41Z</time>
      </trkpt>
      <trkpt lat="37.182039" lon="-3.513521">
        <ele>1096.907</ele>
        <time>2017-03-12T09:52:34Z</time>
      </trkpt>
      <trkpt lat="37.182072" lon="-3.514351">
        <ele>1093.108</ele>
        <time>2017-03-12T09:53:31Z</time>
      </trkpt>
      <trkpt lat="37.181920" lon="-3.514665">
        <ele>1090.684</ele>
        <time>2017-03-12T09:53:53Z</time>
      </trkpt>
      <trkpt lat="37.181584" lon="-3.515121">
        <ele>1086.069</ele>
        <time>2017-03-12T09:54:33Z</time>
      </trkpt>
      <trkpt lat="37.180481" lon="-3.515535">
        <ele>1075.320</ele>
        <time>2017-03-12T09:56:04Z</time>
      </trkpt>
      <trkpt lat="37.179659" lon="-3.516373">
        <ele>1081.228</ele>
        <time>2017-03-12T09:57:45Z</time>
      </trkpt>
      <trkpt lat="37.178758" lon="-3.516767">
        <ele>1086.111</ele>
        <time>2017-03-12T09:59:11Z</time>
      </trkpt>
      <trkpt lat="37.177269" lon="-3.518835">
        <ele>1076.216</ele>
        <time>2017-03-12T10:02:55Z</time>
      </trkpt>
      <trkpt lat="37.177102" lon="-3.519520">
        <ele>1074.683</ele>
        <time>2017-03-12T10:03:38Z</time>
      </trkpt>
      <trkpt lat="37.177876" lon="-3.520362">
        <ele>1066.745</ele>
        <time>2017-03-12T10:05:01Z</time>
      </trkpt>
      <trkpt lat="37.177799" lon="-3.521056">
        <ele>1054.525</ele>
        <time>2017-03-12T10:05:56Z</time>
      </trkpt>
      <trkpt lat="37.178156" lon="-3.521758">
        <ele>1044.526</ele>
        <time>2017-03-12T10:06:52Z</time>
      </trkpt>
      <trkpt lat="37.178050" lon="-3.522196">
        <ele>1040.008</ele>
        <time>2017-03-12T10:07:22Z</time>
      </trkpt>
      <trkpt lat="37.177671" lon="-3.522973">
        <ele>1031.708</ele>
        <time>2017-03-12T10:08:17Z</time>
      </trkpt>
      <trkpt lat="37.176934" lon="-3.523234">
        <ele>1026.543</ele>
        <time>2017-03-12T10:09:15Z</time>
      </trkpt>
      <trkpt lat="37.175662" lon="-3.524285">
        <ele>1021.778</ele>
        <time>2017-03-12T10:11:13Z</time>
      </trkpt>
      <trkpt lat="37.175548" lon="-3.524876">
        <ele>1022.849</ele>
        <time>2017-03-12T10:11:54Z</time>
      </trkpt>
      <trkpt lat="37.174934" lon="-3.525772">
        <ele>1021.187</ele>
        <time>2017-03-12T10:13:05Z</time>
      </trkpt>
      <trkpt lat="37.174938" lon="-3.526129">
        <ele>1023.550</ele>
        <time>2017-03-12T10:13:25Z</time>
      </trkpt>
      <trkpt lat="37.175349" lon="-3.526931">
        <ele>1024.655</ele>
        <time>2017-03-12T10:14:27Z</time>
      </trkpt>
      <trkpt lat="37.175011" lon="-3.527666">
        <ele>1020.222</ele>
        <time>2017-03-12T10:15:17Z</time>
      </trkpt>
      <trkpt lat="37.174917" lon="-3.528615">
        <ele>1015.884</ele>
        <time>2017-03-12T10:16:19Z</time>
      </trkpt>
      <trkpt lat="37.174372" lon="-3.529415">
        <ele>997.083</ele>
        <time>2017-03-12T10:18:02Z</time>
      </trkpt>
      <trkpt lat="37.174342" lon="-3.529752">
        <ele>993.125</ele>
        <time>2017-03-12T10:18:51Z</time>
      </trkpt>
      <trkpt lat="37.174030" lon="-3.529499">
        <ele>989.017</ele>
        <time>2017-03-12T10:19:38Z</time>
      </trkpt>
      <trkpt lat="37.173027" lon="-3.531235">
        <ele>971.608</ele>
        <time>2017-03-12T10:22:23Z</time>
      </trkpt>
      <trkpt lat="37.172961" lon="-3.531572">
        <ele>973.299</ele>
        <time>2017-03-12T10:23:08Z</time>
      </trkpt>
      <trkpt lat="37.172692" lon="-3.531701">
        <ele>974.874</ele>
        <time>2017-03-12T10:23:40Z</time>
      </trkpt>
      <trkpt lat="37.172595" lon="-3.532158">
        <ele>973.435</ele>
        <time>2017-03-12T10:24:23Z</time>
      </trkpt>
      <trkpt lat="37.172649" lon="-3.533226">
        <ele>961.353</ele>
        <time>2017-03-12T10:25:41Z</time>
      </trkpt>
      <trkpt lat="37.172178" lon="-3.535392">
        <ele>953.896</ele>
        <time>2017-03-12T10:28:26Z</time>
      </trkpt>
      <trkpt lat="37.172628" lon="-3.535726">
        <ele>958.851</ele>
        <time>2017-03-12T10:30:10Z</time>
      </trkpt>
      <trkpt lat="37.173230" lon="-3.536649">
        <ele>950.728</ele>
        <time>2017-03-12T10:31:32Z</time>
      </trkpt>
      <trkpt lat="37.173499" lon="-3.537368">
        <ele>947.380</ele>
        <time>2017-03-12T10:32:31Z</time>
      </trkpt>
      <trkpt lat="37.173676" lon="-3.537305">
        <ele>945.437</ele>
        <time>2017-03-12T10:32:51Z</time>
      </trkpt>
      <trkpt lat="37.173764" lon="-3.536652">
        <ele>935.849</ele>
        <time>2017-03-12T10:34:02Z</time>
      </trkpt>
      <trkpt lat="37.174020" lon="-3.536768">
        <ele>932.813</ele>
        <time>2017-03-12T10:34:31Z</time>
      </trkpt>
      <trkpt lat="37.173928" lon="-3.537092">
        <ele>928.008</ele>
        <time>2017-03-12T10:34:58Z</time>
      </trkpt>
      <trkpt lat="37.174052" lon="-3.537259">
        <ele>926.034</ele>
        <time>2017-03-12T10:35:15Z</time>
      </trkpt>
      <trkpt lat="37.174293" lon="-3.536878">
        <ele>922.199</ele>
        <time>2017-03-12T10:35:42Z</time>
      </trkpt>
      <trkpt lat="37.173863" lon="-3.536013">
        <ele>912.150</ele>
        <time>2017-03-12T10:36:54Z</time>
      </trkpt>
      <trkpt lat="37.173950" lon="-3.535792">
        <ele>909.778</ele>
        <time>2017-03-12T10:37:13Z</time>
      </trkpt>
      <trkpt lat="37.174292" lon="-3.535597">
        <ele>905.791</ele>
        <time>2017-03-12T10:37:53Z</time>
      </trkpt>
      <trkpt lat="37.174217" lon="-3.536033">
        <ele>901.486</ele>
        <time>2017-03-12T10:38:28Z</time>
      </trkpt>
      <trkpt lat="37.174641" lon="-3.536645">
        <ele>892.573</ele>
        <time>2017-03-12T10:39:24Z</time>
      </trkpt>
      <trkpt lat="37.174660" lon="-3.538329">
        <ele>887.725</ele>
        <time>2017-03-12T10:41:18Z</time>
      </trkpt>
      <trkpt lat="37.174891" lon="-3.538529">
        <ele>886.188</ele>
        <time>2017-03-12T10:41:46Z</time>
      </trkpt>
      <trkpt lat="37.175373" lon="-3.539549">
        <ele>885.224</ele>
        <time>2017-03-12T10:43:08Z</time>
      </trkpt>
      <trkpt lat="37.175908" lon="-3.539808">
        <ele>879.326</ele>
        <time>2017-03-12T10:43:59Z</time>
      </trkpt>
      <trkpt lat="37.176083" lon="-3.540219">
        <ele>874.808</ele>
        <time>2017-03-12T10:44:30Z</time>
      </trkpt>
      <trkpt lat="37.176457" lon="-3.540169">
        <ele>871.389</ele>
        <time>2017-03-12T10:45:19Z</time>
      </trkpt>
      <trkpt lat="37.176437" lon="-3.540283">
        <ele>883.054</ele>
        <time>2017-03-12T10:51:24Z</time>
      </trkpt>
      <trkpt lat="37.176460" lon="-3.540156">
        <ele>886.155</ele>
        <time>2017-03-12T11:01:08Z</time>
      </trkpt>
      <trkpt lat="37.176325" lon="-3.540218">
        <ele>874.273</ele>
        <time>2017-03-12T11:04:06Z</time>
      </trkpt>
      <trkpt lat="37.176498" lon="-3.540510">
        <ele>868.596</ele>
        <time>2017-03-12T11:04:35Z</time>
      </trkpt>
      <trkpt lat="37.177156" lon="-3.540836">
        <ele>864.571</ele>
        <time>2017-03-12T11:07:07Z</time>
      </trkpt>
      <trkpt lat="37.177325" lon="-3.541118">
        <ele>865.738</ele>
        <time>2017-03-12T11:07:29Z</time>
      </trkpt>
      <trkpt lat="37.177064" lon="-3.542122">
        <ele>863.430</ele>
        <time>2017-03-12T11:08:36Z</time>
      </trkpt>
      <trkpt lat="37.177267" lon="-3.542381">
        <ele>862.417</ele>
        <time>2017-03-12T11:09:06Z</time>
      </trkpt>
      <trkpt lat="37.177727" lon="-3.544903">
        <ele>852.287</ele>
        <time>2017-03-12T11:11:57Z</time>
      </trkpt>
      <trkpt lat="37.178007" lon="-3.545658">
        <ele>850.515</ele>
        <time>2017-03-12T11:13:43Z</time>
      </trkpt>
      <trkpt lat="37.178836" lon="-3.546626">
        <ele>851.508</ele>
        <time>2017-03-12T11:15:26Z</time>
      </trkpt>
      <trkpt lat="37.178878" lon="-3.546991">
        <ele>851.322</ele>
        <time>2017-03-12T11:15:50Z</time>
      </trkpt>
      <trkpt lat="37.178733" lon="-3.547311">
        <ele>852.247</ele>
        <time>2017-03-12T11:16:13Z</time>
      </trkpt>
      <trkpt lat="37.178088" lon="-3.547804">
        <ele>846.548</ele>
        <time>2017-03-12T11:17:31Z</time>
      </trkpt>
      <trkpt lat="37.177759" lon="-3.548574">
        <ele>838.036</ele>
        <time>2017-03-12T11:18:17Z</time>
      </trkpt>
      <trkpt lat="37.177928" lon="-3.549497">
        <ele>838.889</ele>
        <time>2017-03-12T11:19:22Z</time>
      </trkpt>
      <trkpt lat="37.177849" lon="-3.549816">
        <ele>840.184</ele>
        <time>2017-03-12T11:19:55Z</time>
      </trkpt>
      <trkpt lat="37.178317" lon="-3.550770">
        <ele>841.851</ele>
        <time>2017-03-12T11:21:13Z</time>
      </trkpt>
      <trkpt lat="37.178561" lon="-3.552291">
        <ele>838.783</ele>
        <time>2017-03-12T11:22:54Z</time>
      </trkpt>
      <trkpt lat="37.178507" lon="-3.552973">
        <ele>839.587</ele>
        <time>2017-03-12T11:23:50Z</time>
      </trkpt>
      <trkpt lat="37.178281" lon="-3.553082">
        <ele>839.742</ele>
        <time>2017-03-12T11:24:16Z</time>
      </trkpt>
      <trkpt lat="37.178293" lon="-3.553322">
        <ele>836.826</ele>
        <time>2017-03-12T11:24:40Z</time>
      </trkpt>
      <trkpt lat="37.178916" lon="-3.554704">
        <ele>832.208</ele>
        <time>2017-03-12T11:26:26Z</time>
      </trkpt>
      <trkpt lat="37.178803" lon="-3.555961">
        <ele>831.739</ele>
        <time>2017-03-12T11:28:23Z</time>
      </trkpt>
      <trkpt lat="37.179501" lon="-3.557121">
        <ele>828.744</ele>
        <time>2017-03-12T11:30:02Z</time>
      </trkpt>
      <trkpt lat="37.179553" lon="-3.558611">
        <ele>825.575</ele>
        <time>2017-03-12T11:31:54Z</time>
      </trkpt>
      <trkpt lat="37.179753" lon="-3.558666">
        <ele>825.293</ele>
        <time>2017-03-12T11:32:15Z</time>
      </trkpt>
      <trkpt lat="37.179873" lon="-3.558963">
        <ele>822.876</ele>
        <time>2017-03-12T11:32:45Z</time>
      </trkpt>
      <trkpt lat="37.180858" lon="-3.558523">
        <ele>824.281</ele>
        <time>2017-03-12T11:34:24Z</time>
      </trkpt>
      <trkpt lat="37.181149" lon="-3.560491">
        <ele>828.558</ele>
        <time>2017-03-12T11:37:46Z</time>
      </trkpt>
      <trkpt lat="37.180950" lon="-3.562210">
        <ele>808.680</ele>
        <time>2017-03-12T11:40:01Z</time>
      </trkpt>
      <trkpt lat="37.181265" lon="-3.562935">
        <ele>808.615</ele>
        <time>2017-03-12T11:40:50Z</time>
      </trkpt>
      <trkpt lat="37.181603" lon="-3.564431">
        <ele>814.565</ele>
        <time>2017-03-12T11:42:46Z</time>
      </trkpt>
      <trkpt lat="37.181369" lon="-3.565715">
        <ele>813.211</ele>
        <time>2017-03-12T11:44:41Z</time>
      </trkpt>
      <trkpt lat="37.181293" lon="-3.567718">
        <ele>804.808</ele>
        <time>2017-03-12T11:47:17Z</time>
      </trkpt>
      <trkpt lat="37.181015" lon="-3.568174">
        <ele>801.412</ele>
        <time>2017-03-12T11:48:10Z</time>
      </trkpt>
      <trkpt lat="37.181764" lon="-3.569760">
        <ele>803.747</ele>
        <time>2017-03-12T11:50:04Z</time>
      </trkpt>
      <trkpt lat="37.181681" lon="-3.570830">
        <ele>803.638</ele>
        <time>2017-03-12T11:51:20Z</time>
      </trkpt>
      <trkpt lat="37.182005" lon="-3.571697">
        <ele>799.546</ele>
        <time>2017-03-12T11:52:29Z</time>
      </trkpt>
      <trkpt lat="37.181742" lon="-3.572292">
        <ele>792.539</ele>
        <time>2017-03-12T11:53:21Z</time>
      </trkpt>
      <trkpt lat="37.182059" lon="-3.573506">
        <ele>796.654</ele>
        <time>2017-03-12T11:54:49Z</time>
      </trkpt>
      <trkpt lat="37.181769" lon="-3.575418">
        <ele>810.421</ele>
        <time>2017-03-12T11:59:43Z</time>
      </trkpt>
      <trkpt lat="37.181929" lon="-3.575261">
        <ele>828.373</ele>
        <time>2017-03-12T12:08:37Z</time>
      </trkpt>
      <trkpt lat="37.181504" lon="-3.575590">
        <ele>816.019</ele>
        <time>2017-03-12T12:15:58Z</time>
      </trkpt>
      <trkpt lat="37.181640" lon="-3.576792">
        <ele>806.509</ele>
        <time>2017-03-12T12:17:23Z</time>
      </trkpt>
      <trkpt lat="37.181585" lon="-3.579310">
        <ele>794.219</ele>
        <time>2017-03-12T12:20:33Z</time>
      </trkpt>
      <trkpt lat="37.181367" lon="-3.579947">
        <ele>793.608</ele>
        <time>2017-03-12T12:21:19Z</time>
      </trkpt>
      <trkpt lat="37.181477" lon="-3.580783">
        <ele>791.122</ele>
        <time>2017-03-12T12:22:12Z</time>
      </trkpt>
      <trkpt lat="37.181272" lon="-3.582818">
        <ele>787.437</ele>
        <time>2017-03-12T12:25:25Z</time>
      </trkpt>
      <trkpt lat="37.181495" lon="-3.583617">
        <ele>791.368</ele>
        <time>2017-03-12T12:26:52Z</time>
      </trkpt>
      <trkpt lat="37.181616" lon="-3.583821">
        <ele>792.516</ele>
        <time>2017-03-12T12:27:06Z</time>
      </trkpt>
      <trkpt lat="37.181905" lon="-3.583866">
        <ele>794.639</ele>
        <time>2017-03-12T12:27:52Z</time>
      </trkpt>
      <trkpt lat="37.181964" lon="-3.584196">
        <ele>795.434</ele>
        <time>2017-03-12T12:28:40Z</time>
      </trkpt>
      <trkpt lat="37.182151" lon="-3.584307">
        <ele>799.741</ele>
        <time>2017-03-12T12:29:07Z</time>
      </trkpt>
      <trkpt lat="37.182017" lon="-3.584554">
        <ele>803.553</ele>
        <time>2017-03-12T12:29:46Z</time>
      </trkpt>
      <trkpt lat="37.182240" lon="-3.585063">
        <ele>812.878</ele>
        <time>2017-03-12T12:30:29Z</time>
      </trkpt>
      <trkpt lat="37.181805" lon="-3.585238">
        <ele>821.033</ele>
        <time>2017-03-12T12:31:22Z</time>
      </trkpt>
      <trkpt lat="37.181392" lon="-3.586150">
        <ele>816.826</ele>
        <time>2017-03-12T12:32:39Z</time>
      </trkpt>
      <trkpt lat="37.181736" lon="-3.586717">
        <ele>818.808</ele>
        <time>2017-03-12T12:33:27Z</time>
      </trkpt>
      <trkpt lat="37.181664" lon="-3.587892">
        <ele>818.558</ele>
        <time>2017-03-12T12:35:14Z</time>
      </trkpt>
      <trkpt lat="37.182341" lon="-3.588542">
        <ele>824.093</ele>
        <time>2017-03-12T12:37:24Z</time>
      </trkpt>
      <trkpt lat="37.183134" lon="-3.590046">
        <ele>820.374</ele>
        <time>2017-03-12T12:40:13Z</time>
      </trkpt>
      <trkpt lat="37.183688" lon="-3.590481">
        <ele>819.422</ele>
        <time>2017-03-12T12:41:30Z</time>
      </trkpt>
      <trkpt lat="37.183513" lon="-3.591038">
        <ele>816.475</ele>
        <time>2017-03-12T12:42:31Z</time>
      </trkpt>
      <trkpt lat="37.183777" lon="-3.591382">
        <ele>820.290</ele>
        <time>2017-03-12T12:43:04Z</time>
      </trkpt>
      <trkpt lat="37.183637" lon="-3.591679">
        <ele>817.477</ele>
        <time>2017-03-12T12:43:41Z</time>
      </trkpt>
      <trkpt lat="37.183219" lon="-3.591912">
        <ele>824.799</ele>
        <time>2017-03-12T12:44:52Z</time>
      </trkpt>
      <trkpt lat="37.183384" lon="-3.592352">
        <ele>816.593</ele>
        <time>2017-03-12T12:45:31Z</time>
      </trkpt>
      <trkpt lat="37.183902" lon="-3.592861">
        <ele>822.065</ele>
        <time>2017-03-12T12:46:29Z</time>
      </trkpt>
      <trkpt lat="37.183808" lon="-3.593310">
        <ele>826.221</ele>
        <time>2017-03-12T12:47:12Z</time>
      </trkpt>
      <trkpt lat="37.183966" lon="-3.593609">
        <ele>821.308</ele>
        <time>2017-03-12T12:47:39Z</time>
      </trkpt>
      <trkpt lat="37.184157" lon="-3.593333">
        <ele>813.740</ele>
        <time>2017-03-12T12:52:33Z</time>
      </trkpt>
      <trkpt lat="37.184170" lon="-3.593562">
        <ele>814.245</ele>
        <time>2017-03-12T12:52:34Z</time>
      </trkpt>
      <trkpt lat="37.183914" lon="-3.593450">
        <ele>813.926</ele>
        <time>2017-03-12T13:01:36Z</time>
      </trkpt>
      <trkpt lat="37.183910" lon="-3.593027">
        <ele>818.864</ele>
        <time>2017-03-12T13:02:48Z</time>
      </trkpt>
      <trkpt lat="37.183684" lon="-3.593224">
        <ele>836.617</ele>
        <time>2017-03-12T13:22:04Z</time>
      </trkpt>
      <trkpt lat="37.183972" lon="-3.592886">
        <ele>808.512</ele>
        <time>2017-03-12T13:24:52Z</time>
      </trkpt>
      <trkpt lat="37.183923" lon="-3.593149">
        <ele>820.579</ele>
        <time>2017-03-12T13:29:28Z</time>
      </trkpt>
      <trkpt lat="37.183895" lon="-3.592920">
        <ele>824.551</ele>
        <time>2017-03-12T13:31:54Z</time>
      </trkpt>
      <trkpt lat="37.183726" lon="-3.593176">
        <ele>824.234</ele>
        <time>2017-03-12T13:34:03Z</time>
      </trkpt>
      <trkpt lat="37.183055" lon="-3.593448">
        <ele>812.255</ele>
        <time>2017-03-12T13:35:36Z</time>
      </trkpt>
      <trkpt lat="37.182678" lon="-3.593452">
        <ele>810.610</ele>
        <time>2017-03-12T13:36:12Z</time>
      </trkpt>
      <trkpt lat="37.181741" lon="-3.593967">
        <ele>816.008</ele>
        <time>2017-03-12T13:37:58Z</time>
      </trkpt>
      <trkpt lat="37.181502" lon="-3.594333">
        <ele>811.644</ele>
        <time>2017-03-12T13:38:37Z</time>
      </trkpt>
      <trkpt lat="37.180658" lon="-3.594286">
        <ele>800.699</ele>
        <time>2017-03-12T13:39:57Z</time>
      </trkpt>
      <trkpt lat="37.180314" lon="-3.594693">
        <ele>797.770</ele>
        <time>2017-03-12T13:40:54Z</time>
      </trkpt>
      <trkpt lat="37.179835" lon="-3.594665">
        <ele>787.748</ele>
        <time>2017-03-12T13:41:57Z</time>
      </trkpt>
      <trkpt lat="37.179049" lon="-3.594982">
        <ele>772.431</ele>
        <time>2017-03-12T13:43:37Z</time>
      </trkpt>
      <trkpt lat="37.178552" lon="-3.594914">
        <ele>756.226</ele>
        <time>2017-03-12T13:44:34Z</time>
      </trkpt>
      <trkpt lat="37.178027" lon="-3.596290">
        <ele>755.023</ele>
        <time>2017-03-12T13:46:54Z</time>
      </trkpt>
      <trkpt lat="37.177907" lon="-3.596050">
        <ele>758.325</ele>
        <time>2017-03-12T13:47:33Z</time>
      </trkpt>
      <trkpt lat="37.177439" lon="-3.596007">
        <ele>759.745</ele>
        <time>2017-03-12T13:48:16Z</time>
      </trkpt>
      <trkpt lat="37.177108" lon="-3.595785">
        <ele>758.247</ele>
        <time>2017-03-12T13:48:51Z</time>
      </trkpt>
      <trkpt lat="37.176888" lon="-3.596118">
        <ele>746.311</ele>
        <time>2017-03-12T13:49:53Z</time>
      </trkpt>
      <trkpt lat="37.176895" lon="-3.596410">
        <ele>749.308</ele>
        <time>2017-03-12T13:50:22Z</time>
      </trkpt>
      <trkpt lat="37.177141" lon="-3.596465">
        <ele>741.665</ele>
        <time>2017-03-12T14:03:44Z</time>
      </trkpt>
      <trkpt lat="37.177115" lon="-3.596602">
        <ele>747.810</ele>
        <time>2017-03-12T14:04:40Z</time>
      </trkpt>
      <trkpt lat="37.176840" lon="-3.596683">
        <ele>755.411</ele>
        <time>2017-03-12T14:05:21Z</time>
      </trkpt>
      <trkpt lat="37.176700" lon="-3.596278">
        <ele>757.989</ele>
        <time>2017-03-12T14:05:55Z</time>
      </trkpt>
      <trkpt lat="37.176367" lon="-3.596230">
        <ele>754.022</ele>
        <time>2017-03-12T14:06:22Z</time>
      </trkpt>
    </trkseg>
  </trk>
</gpx>
